Time,TemperatureF,DewpointF,PressureIn,WindDirection,WindDirectionDegrees,WindSpeedMPH,WindSpeedGustMPH,Humidity,HourlyPrecipIn,Conditions,Clouds,dailyrainin,SolarRadiationWatts/m^2,SoftwareType,DateUTC
2013-01-13 00:00:00,55.3,55.3,30.19,WNW,284,0.0,0.0,100,0.00,RA,OVC,0.00,0.0,WeatherDisplay:10.37,2013-01-13 05:00:00,
2013-01-13 00:02:00,55.0,55.0,30.19,WNW,284,0.0,0.0,100,0.00,RA,OVC,0.00,0.0,WeatherDisplay:10.37,2013-01-13 05:02:00,
2013-01-13 00:06:00,54.2,54.2,30.18,WNW,284,0.0,0.0,100,0.00,RA,OVC,0.00,0.0,WeatherDisplay:10.37,2013-01-13 05:06:00,
2013-01-13 00:07:00,54.4,54.4,30.18,WNW,284,0.0,0.0,100,0.00,RA,OVC,0.00,0.0,WeatherDisplay:10.37,2013-01-13 05:07:00,
2013-01-13 00:08:00,54.4,54.4,30.18,WNW,284,0.0,0.0,100,0.00,RA,OVC,0.00,0.0,WeatherDisplay:10.37,2013-01-13 05:08:00,
2013-01-13 00:11:00,54.5,54.5,30.18,WNW,284,0.0,0.0,100,0.00,,OVC,0.00,0.0,WeatherDisplay:10.37,2013-01-13 05:11:00,
2013-01-13 00:13:00,54.7,54.7,30.18,WNW,284,0.0,0.0,100,0.00,,OVC,0.00,0.0,WeatherDisplay:10.37,2013-01-13 05:13:00,
2013-01-13 00:14:00,55.1,55.1,30.18,WNW,284,0.0,0.0,100,0.00,,OVC,0.00,0.0,WeatherDisplay:10.37,2013-01-13 05:14:00,
2013-01-13 00:16:00,55.3,55.3,30.18,WNW,284,0.0,0.0,100,0.00,,OVC,0.00,0.0,WeatherDisplay:10.37,2013-01-13 05:16:00,
2013-01-13 00:19:00,55.3,55.3,30.19,WNW,284,0.0,0.0,100,0.00,,OVC,0.00,0.0,WeatherDisplay:10.37,2013-01-13 05:19:00,
2013-01-13 00:20:00,55.3,55.3,30.19,WNW,284,0.0,0.0,100,0.00,,OVC,0.00,0.0,WeatherDisplay:10.37,2013-01-13 05:20:00,
2013-01-13 00:21:00,55.3,55.3,30.19,WNW,284,0.0,0.0,100,0.00,,OVC,0.00,0.0,WeatherDisplay:10.37,2013-01-13 05:21:00,
2013-01-13 00:22:00,55.3,55.3,30.19,WNW,284,0.0,0.0,100,0.00,,OVC,0.00,0.0,WeatherDisplay:10.37,2013-01-13 05:22:00,
2013-01-13 00:24:00,54.8,54.8,30.19,WNW,284,0.0,0.0,100,0.00,,OVC,0.00,0.0,WeatherDisplay:10.37,2013-01-13 05:24:00,
2013-01-13 00:27:00,54.5,54.5,30.19,WNW,284,0.0,0.0,100,0.00,,OVC,0.00,0.0,WeatherDisplay:10.37,2013-01-13 05:27:00,
2013-01-13 00:28:00,54.4,54.4,30.19,WNW,284,0.0,0.0,100,0.00,,OVC,0.00,0.0,WeatherDisplay:10.37,2013-01-13 05:28:00,
2013-01-13 00:30:00,54.5,54.5,30.19,WNW,284,0.0,0.0,100,0.00,,OVC,0.00,0.0,WeatherDisplay:10.37,2013-01-13 05:30:00,
2013-01-13 00:31:00,54.5,54.5,30.19,WNW,284,0.0,0.0,100,0.00,,OVC,0.00,0.0,WeatherDisplay:10.37,2013-01-13 05:31:00,
2013-01-13 00:32:00,54.5,54.5,30.19,WNW,284,0.0,0.0,100,0.00,,OVC,0.00,0.0,WeatherDisplay:10.37,2013-01-13 05:32:00,
2013-01-13 00:34:00,54.5,54.5,30.18,WNW,284,0.0,0.0,100,0.00,,OVC,0.00,0.0,WeatherDisplay:10.37,2013-01-13 05:34:00,
2013-01-13 00:36:00,54.2,54.2,30.18,WNW,284,0.0,0.0,100,0.00,,OVC,0.00,0.0,WeatherDisplay:10.37,2013-01-13 05:36:00,
2013-01-13 00:38:00,54.1,54.1,30.18,WNW,284,0.0,0.0,100,0.00,,OVC,0.00,0.0,WeatherDisplay:10.37,2013-01-13 05:38:00,
2013-01-13 00:40:00,54.1,54.1,30.18,WNW,284,0.0,0.0,100,0.00,,OVC,0.00,0.0,WeatherDisplay:10.37,2013-01-13 05:40:00,
2013-01-13 00:41:00,54.4,54.4,30.18,WNW,284,0.0,0.0,100,0.00,,OVC,0.00,0.0,WeatherDisplay:10.37,2013-01-13 05:41:00,
2013-01-13 00:43:00,54.5,54.5,30.18,WNW,284,0.0,0.0,100,0.00,,OVC,0.00,0.0,WeatherDisplay:10.37,2013-01-13 05:43:00,
2013-01-13 00:45:00,54.7,54.7,30.18,WNW,284,0.0,0.0,100,0.00,,OVC,0.00,0.0,WeatherDisplay:10.37,2013-01-13 05:45:00,
2013-01-13 00:46:00,54.8,54.8,30.18,WNW,284,0.0,0.0,100,0.00,,OVC,0.00,0.0,WeatherDisplay:10.37,2013-01-13 05:46:00,
2013-01-13 00:48:00,55.0,55.0,30.18,WNW,284,0.0,0.0,100,0.00,,OVC,0.00,0.0,WeatherDisplay:10.37,2013-01-13 05:48:00,
2013-01-13 00:49:00,55.1,55.1,30.18,WNW,284,0.0,0.0,100,0.00,,OVC,0.00,0.0,WeatherDisplay:10.37,2013-01-13 05:49:00,
2013-01-13 00:51:00,55.1,55.1,30.18,WNW,284,0.0,0.0,100,0.00,,OVC,0.00,0.0,WeatherDisplay:10.37,2013-01-13 05:51:00,
2013-01-13 00:53:00,54.8,54.8,30.18,WNW,284,0.0,0.0,100,0.00,,OVC,0.00,0.0,WeatherDisplay:10.37,2013-01-13 05:53:00,
2013-01-13 00:54:00,54.7,54.7,30.18,WNW,284,0.0,0.0,100,0.00,,OVC,0.00,0.0,WeatherDisplay:10.37,2013-01-13 05:54:00,
2013-01-13 00:55:00,54.7,54.7,30.18,WNW,284,0.0,0.0,100,0.00,,OVC,0.00,0.0,WeatherDisplay:10.37,2013-01-13 05:55:00,
2013-01-13 00:57:00,54.8,54.8,30.18,WNW,284,0.0,0.0,100,0.00,,OVC,0.00,0.0,WeatherDisplay:10.37,2013-01-13 05:57:00,
2013-01-13 00:59:00,55.0,55.0,30.18,WNW,284,0.0,0.0,100,0.00,,OVC,0.00,0.0,WeatherDisplay:10.37,2013-01-13 05:59:00,
2013-01-13 01:00:00,55.0,55.0,30.18,WNW,284,0.0,0.0,100,0.00,,OVC,0.00,0.0,WeatherDisplay:10.37,2013-01-13 06:00:00,
2013-01-13 01:03:00,55.3,55.3,30.18,WNW,284,0.0,0.0,100,0.00,,OVC,0.00,0.0,WeatherDisplay:10.37,2013-01-13 06:03:00,
2013-01-13 01:05:00,55.4,55.4,30.18,WNW,284,0.0,0.0,100,0.00,,OVC,0.00,0.0,WeatherDisplay:10.37,2013-01-13 06:05:00,
2013-01-13 01:07:00,55.6,55.6,30.18,WNW,284,0.0,0.0,100,0.00,,OVC,0.00,0.0,WeatherDisplay:10.37,2013-01-13 06:07:00,
2013-01-13 01:08:00,55.7,55.7,30.18,WNW,284,0.0,0.0,100,0.00,,OVC,0.00,0.0,WeatherDisplay:10.37,2013-01-13 06:08:00,
2013-01-13 01:11:00,55.9,55.9,30.18,WNW,284,0.0,0.0,100,0.00,,OVC,0.00,0.0,WeatherDisplay:10.37,2013-01-13 06:11:00,
2013-01-13 01:13:00,56.0,56.0,30.18,WNW,284,0.0,0.0,100,0.00,,OVC,0.00,0.0,WeatherDisplay:10.37,2013-01-13 06:13:00,
2013-01-13 01:14:00,56.0,56.0,30.18,WNW,284,0.0,0.0,100,0.00,,OVC,0.00,0.0,WeatherDisplay:10.37,2013-01-13 06:14:00,
2013-01-13 01:18:00,55.6,55.6,30.18,WNW,284,0.0,0.0,100,0.00,,OVC,0.00,0.0,WeatherDisplay:10.37,2013-01-13 06:18:00,
2013-01-13 01:20:00,55.4,55.4,30.18,WNW,284,0.0,0.0,100,0.00,,OVC,0.00,0.0,WeatherDisplay:10.37,2013-01-13 06:20:00,
2013-01-13 01:23:00,55.4,55.4,30.18,WNW,284,0.0,0.0,100,0.00,,OVC,0.00,0.0,WeatherDisplay:10.37,2013-01-13 06:23:00,
2013-01-13 01:24:00,55.4,55.4,30.18,WNW,284,0.0,0.0,100,0.00,,OVC,0.00,0.0,WeatherDisplay:10.37,2013-01-13 06:24:00,
2013-01-13 01:25:00,55.4,55.4,30.18,WNW,284,0.0,0.0,100,0.00,,OVC,0.00,0.0,WeatherDisplay:10.37,2013-01-13 06:25:00,
2013-01-13 01:28:00,55.4,55.4,30.18,WNW,284,0.0,0.0,100,0.00,,OVC,0.00,0.0,WeatherDisplay:10.37,2013-01-13 06:28:00,
2013-01-13 01:30:00,55.6,55.6,30.18,WNW,284,0.0,0.0,100,0.00,,OVC,0.00,0.0,WeatherDisplay:10.37,2013-01-13 06:30:00,
2013-01-13 01:33:00,55.6,55.6,30.18,WNW,284,0.0,0.0,100,0.00,,OVC,0.00,0.0,WeatherDisplay:10.37,2013-01-13 06:33:00,
2013-01-13 01:34:00,55.6,55.6,30.18,WNW,284,0.0,0.0,100,0.00,,OVC,0.00,0.0,WeatherDisplay:10.37,2013-01-13 06:34:00,
2013-01-13 01:36:00,55.7,55.7,30.18,WNW,284,0.0,0.0,100,0.00,,OVC,0.00,0.0,WeatherDisplay:10.37,2013-01-13 06:36:00,
2013-01-13 01:39:00,55.6,55.6,30.18,WNW,284,0.0,0.0,100,0.00,,OVC,0.00,0.0,WeatherDisplay:10.37,2013-01-13 06:39:00,
2013-01-13 01:40:00,55.6,55.6,30.18,WNW,284,0.0,0.0,100,0.00,,OVC,0.00,0.0,WeatherDisplay:10.37,2013-01-13 06:40:00,
2013-01-13 01:43:00,55.3,55.3,30.18,WNW,284,0.0,0.0,100,0.00,,OVC,0.00,0.0,WeatherDisplay:10.37,2013-01-13 06:43:00,
2013-01-13 01:44:00,55.1,55.1,30.18,WNW,284,0.0,0.0,100,0.00,,OVC,0.00,0.0,WeatherDisplay:10.37,2013-01-13 06:44:00,
2013-01-13 01:45:00,54.8,54.8,30.18,WNW,284,0.0,0.0,100,0.00,,OVC,0.00,0.0,WeatherDisplay:10.37,2013-01-13 06:45:00,
2013-01-13 01:48:00,54.2,54.2,30.18,WNW,284,0.0,0.0,100,0.00,,OVC,0.00,0.0,WeatherDisplay:10.37,2013-01-13 06:48:00,
2013-01-13 01:51:00,53.9,53.9,30.18,WNW,284,0.0,0.0,100,0.00,,OVC,0.00,0.0,WeatherDisplay:10.37,2013-01-13 06:51:00,
2013-01-13 01:52:00,53.9,53.9,30.18,WNW,284,0.0,0.0,100,0.00,,OVC,0.00,0.0,WeatherDisplay:10.37,2013-01-13 06:52:00,
2013-01-13 01:54:00,53.9,53.9,30.18,WNW,284,0.0,0.0,100,0.00,,OVC,0.00,0.0,WeatherDisplay:10.37,2013-01-13 06:54:00,
2013-01-13 01:56:00,54.2,54.2,30.18,WNW,284,0.0,0.0,100,0.00,,OVC,0.00,0.0,WeatherDisplay:10.37,2013-01-13 06:56:00,
2013-01-13 01:57:00,54.4,54.4,30.18,WNW,284,0.0,0.0,100,0.00,,OVC,0.00,0.0,WeatherDisplay:10.37,2013-01-13 06:57:00,
2013-01-13 01:58:00,54.5,54.5,30.18,WNW,284,0.0,0.0,100,0.00,,OVC,0.00,0.0,WeatherDisplay:10.37,2013-01-13 06:58:00,
2013-01-13 01:59:00,54.7,54.7,30.18,WNW,284,0.0,0.0,100,0.00,,OVC,0.00,0.0,WeatherDisplay:10.37,2013-01-13 06:59:00,
2013-01-13 02:02:00,55.0,55.0,30.18,WNW,284,0.0,0.0,100,0.00,,OVC,0.00,0.0,WeatherDisplay:10.37,2013-01-13 07:02:00,
2013-01-13 02:03:00,55.1,55.1,30.18,WNW,284,0.0,0.0,100,0.00,,OVC,0.00,0.0,WeatherDisplay:10.37,2013-01-13 07:03:00,
2013-01-13 02:07:00,55.3,55.3,30.18,WNW,284,0.0,0.0,100,0.00,,OVC,0.00,0.0,WeatherDisplay:10.37,2013-01-13 07:07:00,
2013-01-13 02:08:00,55.4,55.4,30.18,WNW,284,0.0,0.0,100,0.00,,OVC,0.00,0.0,WeatherDisplay:10.37,2013-01-13 07:08:00,
2013-01-13 02:09:00,55.4,55.4,30.18,WNW,284,0.0,0.0,100,0.00,,OVC,0.00,0.0,WeatherDisplay:10.37,2013-01-13 07:09:00,
2013-01-13 02:10:00,55.4,55.4,30.18,WNW,284,0.0,0.0,100,0.00,,OVC,0.00,0.0,WeatherDisplay:10.37,2013-01-13 07:10:00,
2013-01-13 02:12:00,55.6,55.6,30.18,WNW,284,0.0,0.0,100,0.00,,OVC,0.00,0.0,WeatherDisplay:10.37,2013-01-13 07:12:00,
2013-01-13 02:14:00,56.0,56.0,30.18,WNW,284,0.0,0.0,100,0.00,,OVC,0.00,0.0,WeatherDisplay:10.37,2013-01-13 07:14:00,
2013-01-13 02:16:00,56.0,56.0,30.18,WNW,284,0.0,0.0,100,0.00,,OVC,0.00,0.0,WeatherDisplay:10.37,2013-01-13 07:16:00,
2013-01-13 02:17:00,56.0,56.0,30.18,WNW,284,0.0,0.0,100,0.00,,OVC,0.00,0.0,WeatherDisplay:10.37,2013-01-13 07:17:00,
2013-01-13 02:18:00,56.2,56.2,30.17,WNW,284,0.0,0.0,100,0.00,,OVC,0.00,0.0,WeatherDisplay:10.37,2013-01-13 07:18:00,
2013-01-13 02:19:00,56.2,56.2,30.17,WNW,284,0.0,0.0,100,0.00,,OVC,0.00,0.0,WeatherDisplay:10.37,2013-01-13 07:19:00,
2013-01-13 02:22:00,55.9,55.9,30.17,WNW,284,0.0,0.0,100,0.00,,OVC,0.00,0.0,WeatherDisplay:10.37,2013-01-13 07:22:00,
2013-01-13 02:24:00,55.3,55.3,30.17,WNW,284,0.0,0.0,100,0.00,,OVC,0.00,0.0,WeatherDisplay:10.37,2013-01-13 07:24:00,
2013-01-13 02:25:00,55.1,55.1,30.17,WNW,284,0.0,0.0,100,0.00,,OVC,0.00,0.0,WeatherDisplay:10.37,2013-01-13 07:25:00,
2013-01-13 02:29:00,55.3,55.3,30.17,WNW,284,1.2,4.0,100,0.00,,OVC,0.00,0.0,WeatherDisplay:10.37,2013-01-13 07:29:00,
2013-01-13 02:30:00,55.3,55.3,30.17,WNW,284,2.7,3.5,100,0.00,,OVC,0.00,0.0,WeatherDisplay:10.37,2013-01-13 07:30:00,
2013-01-13 02:31:00,55.4,55.4,30.17,WNW,284,2.9,4.0,100,0.00,,OVC,0.00,0.0,WeatherDisplay:10.37,2013-01-13 07:31:00,
2013-01-13 02:33:00,55.3,55.3,30.18,WNW,284,4.1,5.0,100,0.00,,OVC,0.00,0.0,WeatherDisplay:10.37,2013-01-13 07:33:00,
2013-01-13 02:35:00,55.0,55.0,30.18,WNW,284,4.0,5.0,100,0.00,,OVC,0.00,0.0,WeatherDisplay:10.37,2013-01-13 07:35:00,
2013-01-13 02:36:00,55.0,55.0,30.18,WNW,284,4.4,4.6,100,0.00,,OVC,0.00,0.0,WeatherDisplay:10.37,2013-01-13 07:36:00,
2013-01-13 02:40:00,55.1,55.1,30.18,WNW,284,4.9,6.0,100,0.00,,OVC,0.00,0.0,WeatherDisplay:10.37,2013-01-13 07:40:00,
2013-01-13 02:41:00,55.3,55.3,30.18,WNW,284,6.2,6.9,100,0.00,,OVC,0.00,0.0,WeatherDisplay:10.37,2013-01-13 07:41:00,
2013-01-13 02:42:00,55.7,55.7,30.18,WNW,284,6.0,6.9,100,0.00,,OVC,0.00,0.0,WeatherDisplay:10.37,2013-01-13 07:42:00,
2013-01-13 02:47:00,55.3,55.3,30.18,WNW,284,5.8,6.9,100,0.00,,OVC,0.00,0.0,WeatherDisplay:10.37,2013-01-13 07:47:00,
2013-01-13 02:49:00,55.6,55.6,30.17,WNW,284,5.7,6.9,100,0.00,,OVC,0.00,0.0,WeatherDisplay:10.37,2013-01-13 07:49:00,
2013-01-13 02:50:00,55.6,55.6,30.17,WNW,284,5.2,6.0,100,0.00,,OVC,0.00,0.0,WeatherDisplay:10.37,2013-01-13 07:50:00,
2013-01-13 02:52:00,55.6,55.6,30.17,WNW,284,5.5,6.9,100,0.00,,OVC,0.00,0.0,WeatherDisplay:10.37,2013-01-13 07:52:00,
2013-01-13 02:55:00,55.1,55.1,30.17,WNW,284,5.0,6.0,100,0.00,,OVC,0.00,0.0,WeatherDisplay:10.37,2013-01-13 07:55:00,
2013-01-13 02:56:00,55.3,55.3,30.17,WNW,284,5.1,5.8,100,0.00,,OVC,0.00,0.0,WeatherDisplay:10.37,2013-01-13 07:56:00,
2013-01-13 02:58:00,55.9,55.9,30.17,WNW,284,5.1,5.8,100,0.00,,OVC,0.00,0.0,WeatherDisplay:10.37,2013-01-13 07:58:00,
2013-01-13 03:01:00,56.0,56.0,30.17,WNW,284,5.2,6.9,100,0.00,,OVC,0.00,0.0,WeatherDisplay:10.37,2013-01-13 08:01:00,
2013-01-13 03:02:00,55.9,55.9,30.17,WNW,284,4.8,6.9,100,0.00,,OVC,0.00,0.0,WeatherDisplay:10.37,2013-01-13 08:02:00,
2013-01-13 03:03:00,55.7,55.7,30.17,WNW,284,4.9,5.8,100,0.00,,OVC,0.00,0.0,WeatherDisplay:10.37,2013-01-13 08:03:00,
2013-01-13 03:07:00,55.9,55.9,30.17,WNW,284,5.9,9.2,100,0.00,,OVC,0.00,0.0,WeatherDisplay:10.37,2013-01-13 08:07:00,
2013-01-13 03:09:00,56.3,56.3,30.17,WNW,284,5.4,6.9,100,0.00,,OVC,0.00,0.0,WeatherDisplay:10.37,2013-01-13 08:09:00,
2013-01-13 03:12:00,56.2,56.2,30.17,WNW,284,5.4,5.8,100,0.00,,OVC,0.00,0.0,WeatherDisplay:10.37,2013-01-13 08:12:00,
2013-01-13 03:15:00,56.0,56.0,30.17,WNW,284,5.0,10.0,100,0.00,,OVC,0.00,0.0,WeatherDisplay:10.37,2013-01-13 08:15:00,
2013-01-13 03:17:00,56.0,56.0,30.17,WNW,284,5.1,6.0,100,0.00,,OVC,0.00,0.0,WeatherDisplay:10.37,2013-01-13 08:17:00,
2013-01-13 03:20:00,56.3,56.3,30.17,WNW,284,4.9,6.9,100,0.00,,OVC,0.00,0.0,WeatherDisplay:10.37,2013-01-13 08:20:00,
2013-01-13 03:22:00,56.5,56.5,30.17,WNW,284,5.0,6.9,100,0.00,,OVC,0.00,0.0,WeatherDisplay:10.37,2013-01-13 08:22:00,
2013-01-13 03:23:00,56.5,56.5,30.17,WNW,284,4.8,6.9,100,0.00,,OVC,0.00,0.0,WeatherDisplay:10.37,2013-01-13 08:23:00,
2013-01-13 03:26:00,56.6,56.6,30.17,WNW,284,4.9,6.0,100,0.00,,OVC,0.00,0.0,WeatherDisplay:10.37,2013-01-13 08:26:00,
2013-01-13 03:28:00,56.7,56.7,30.17,WNW,284,4.4,5.0,100,0.00,,OVC,0.00,0.0,WeatherDisplay:10.37,2013-01-13 08:28:00,
2013-01-13 03:29:00,56.9,56.6,30.17,WNW,284,4.3,5.8,99,0.00,,OVC,0.00,0.0,WeatherDisplay:10.37,2013-01-13 08:29:00,
2013-01-13 03:32:00,56.9,56.6,30.17,WNW,284,4.6,5.8,99,0.00,,OVC,0.00,0.0,WeatherDisplay:10.37,2013-01-13 08:32:00,
2013-01-13 03:34:00,57.0,56.7,30.17,WNW,284,5.1,6.9,99,0.00,CLR,OVC,0.00,0.0,WeatherDisplay:10.37,2013-01-13 08:34:00,
2013-01-13 03:35:00,57.2,56.9,30.17,WNW,284,5.3,8.1,99,0.00,CLR,OVC,0.00,0.0,WeatherDisplay:10.37,2013-01-13 08:35:00,
2013-01-13 03:39:00,57.6,57.0,30.17,WNW,284,6.8,10.4,98,0.00,CLR,OVC,0.00,0.0,WeatherDisplay:10.37,2013-01-13 08:39:00,
2013-01-13 03:40:00,57.6,57.0,30.17,WNW,284,5.3,6.9,98,0.00,CLR,OVC,0.00,0.0,WeatherDisplay:10.37,2013-01-13 08:40:00,
2013-01-13 03:41:00,57.6,57.0,30.17,WNW,284,8.7,9.0,98,0.00,CLR,OVC,0.00,0.0,WeatherDisplay:10.37,2013-01-13 08:41:00,
2013-01-13 03:44:00,57.8,57.0,30.17,WNW,284,5.5,10.4,97,0.00,CLR,OVC,0.00,0.0,WeatherDisplay:10.37,2013-01-13 08:44:00,
2013-01-13 03:45:00,57.8,57.0,30.17,WNW,284,5.4,5.8,97,0.00,CLR,OVC,0.00,0.0,WeatherDisplay:10.37,2013-01-13 08:45:00,
2013-01-13 03:46:00,57.8,57.0,30.17,WNW,284,5.4,6.9,97,0.00,CLR,OVC,0.00,0.0,WeatherDisplay:10.37,2013-01-13 08:46:00,
2013-01-13 03:47:00,57.8,56.7,30.17,WNW,284,5.8,6.9,96,0.00,CLR,OVC,0.00,0.0,WeatherDisplay:10.37,2013-01-13 08:47:00,
2013-01-13 03:49:00,57.8,56.7,30.16,WNW,284,6.3,6.3,96,0.00,CLR,OVC,0.00,0.0,WeatherDisplay:10.37,2013-01-13 08:49:00,
2013-01-13 03:50:00,57.8,56.7,30.16,WNW,284,6.1,8.1,96,0.00,CLR,OVC,0.00,0.0,WeatherDisplay:10.37,2013-01-13 08:50:00,
2013-01-13 03:53:00,57.8,56.7,30.16,WNW,284,5.5,5.8,96,0.00,CLR,OVC,0.00,0.0,WeatherDisplay:10.37,2013-01-13 08:53:00,
2013-01-13 03:54:00,58.1,57.0,30.16,WNW,284,4.5,5.8,96,0.00,CLR,OVC,0.00,0.0,WeatherDisplay:10.37,2013-01-13 08:54:00,
2013-01-13 03:55:00,58.1,57.0,30.16,WNW,284,4.0,4.6,96,0.00,CLR,OVC,0.00,0.0,WeatherDisplay:10.37,2013-01-13 08:55:00,
2013-01-13 03:58:00,58.4,57.0,30.16,WNW,284,4.7,5.8,95,0.00,CLR,OVC,0.00,0.0,WeatherDisplay:10.37,2013-01-13 08:58:00,
2013-01-13 03:59:00,58.4,57.0,30.16,WNW,284,5.9,7.0,95,0.00,CLR,OVC,0.00,0.0,WeatherDisplay:10.37,2013-01-13 08:59:00,
2013-01-13 04:01:00,58.6,57.2,30.16,WNW,284,5.0,6.9,95,0.00,CLR,OVC,0.00,0.0,WeatherDisplay:10.37,2013-01-13 09:01:00,
2013-01-13 04:04:00,58.6,56.9,30.16,WNW,284,4.6,6.9,94,0.00,CLR,OVC,0.00,0.0,WeatherDisplay:10.37,2013-01-13 09:04:00,
2013-01-13 04:05:00,58.7,57.0,30.16,WNW,284,4.4,5.0,94,0.00,CLR,OVC,0.00,0.0,WeatherDisplay:10.37,2013-01-13 09:05:00,
2013-01-13 04:06:00,58.7,57.0,30.16,WNW,284,4.6,5.8,94,0.00,CLR,OVC,0.00,0.0,WeatherDisplay:10.37,2013-01-13 09:06:00,
2013-01-13 04:10:00,59.0,57.0,30.16,WNW,284,4.6,5.0,93,0.00,CLR,OVC,0.00,0.0,WeatherDisplay:10.37,2013-01-13 09:10:00,
2013-01-13 04:11:00,59.0,57.0,30.16,WNW,284,4.5,5.0,93,0.00,CLR,OVC,0.00,0.0,WeatherDisplay:10.37,2013-01-13 09:11:00,
2013-01-13 04:13:00,58.9,56.9,30.16,WNW,284,4.4,5.0,93,0.00,CLR,OVC,0.00,0.0,WeatherDisplay:10.37,2013-01-13 09:13:00,
2013-01-13 04:14:00,58.9,56.9,30.16,WNW,284,4.9,5.0,93,0.00,CLR,OVC,0.00,0.0,WeatherDisplay:10.37,2013-01-13 09:14:00,
2013-01-13 04:16:00,58.9,56.9,30.16,WNW,284,4.9,5.8,93,0.00,CLR,OVC,0.00,0.0,WeatherDisplay:10.37,2013-01-13 09:16:00,
2013-01-13 04:18:00,58.9,56.9,30.15,WNW,284,5.0,5.8,93,0.00,CLR,OVC,0.00,0.0,WeatherDisplay:10.37,2013-01-13 09:18:00,
2013-01-13 04:19:00,58.9,56.6,30.15,WNW,284,5.0,5.8,92,0.00,CLR,OVC,0.00,0.0,WeatherDisplay:10.37,2013-01-13 09:19:00,
2013-01-13 04:22:00,58.9,56.6,30.15,WNW,284,4.9,5.8,92,0.00,CLR,OVC,0.00,0.0,WeatherDisplay:10.37,2013-01-13 09:22:00,
2013-01-13 04:24:00,58.9,56.6,30.15,WNW,284,4.5,5.0,92,0.00,CLR,OVC,0.00,0.0,WeatherDisplay:10.37,2013-01-13 09:24:00,
2013-01-13 04:25:00,58.7,56.4,30.15,WNW,284,4.5,5.8,92,0.00,CLR,OVC,0.00,0.0,WeatherDisplay:10.37,2013-01-13 09:25:00,
2013-01-13 04:27:00,59.0,56.7,30.15,WNW,284,5.0,6.9,92,0.00,CLR,OVC,0.00,0.0,WeatherDisplay:10.37,2013-01-13 09:27:00,
2013-01-13 04:28:00,59.0,56.7,30.15,WNW,284,4.6,6.9,92,0.00,CLR,OVC,0.00,0.0,WeatherDisplay:10.37,2013-01-13 09:28:00,
2013-01-13 04:29:00,59.2,56.9,30.15,WNW,284,4.6,5.0,92,0.00,CLR,OVC,0.00,0.0,WeatherDisplay:10.37,2013-01-13 09:29:00,
2013-01-13 04:31:00,59.2,56.9,30.15,WNW,284,4.5,5.8,92,0.00,CLR,OVC,0.00,0.0,WeatherDisplay:10.37,2013-01-13 09:31:00,
2013-01-13 04:33:00,59.2,56.9,30.15,WNW,284,5.1,6.0,92,0.00,CLR,OVC,0.00,0.0,WeatherDisplay:10.37,2013-01-13 09:33:00,
2013-01-13 04:34:00,59.2,56.9,30.15,WNW,284,5.7,6.9,92,0.00,CLR,OVC,0.00,0.0,WeatherDisplay:10.37,2013-01-13 09:34:00,
2013-01-13 04:36:00,59.2,56.9,30.15,WNW,284,4.6,5.8,92,0.00,CLR,OVC,0.00,0.0,WeatherDisplay:10.37,2013-01-13 09:36:00,
2013-01-13 04:37:00,59.2,56.6,30.15,WNW,284,5.7,9.0,91,0.00,CLR,OVC,0.00,0.0,WeatherDisplay:10.37,2013-01-13 09:37:00,
2013-01-13 04:39:00,59.3,56.7,30.15,WNW,284,5.8,6.9,91,0.00,CLR,OVC,0.00,0.0,WeatherDisplay:10.37,2013-01-13 09:39:00,
2013-01-13 04:42:00,59.3,56.7,30.15,West,277,7.7,11.5,91,0.00,CLR,OVC,0.00,0.0,WeatherDisplay:10.37,2013-01-13 09:42:00,
2013-01-13 04:43:00,59.2,56.3,30.15,West,276,7.1,10.4,90,0.00,CLR,OVC,0.00,0.0,WeatherDisplay:10.37,2013-01-13 09:43:00,
2013-01-13 04:45:00,59.0,56.4,30.15,West,272,7.4,10.4,91,0.00,CLR,OVC,0.00,0.0,WeatherDisplay:10.37,2013-01-13 09:45:00,
2013-01-13 04:48:00,59.2,56.6,30.15,West,271,7.5,10.4,91,0.00,CLR,OVC,0.00,0.0,WeatherDisplay:10.37,2013-01-13 09:48:00,
2013-01-13 04:49:00,59.3,56.7,30.15,West,261,9.0,11.5,91,0.00,CLR,OVC,0.00,0.0,WeatherDisplay:10.37,2013-01-13 09:49:00,
2013-01-13 04:50:00,59.3,56.4,30.15,West,261,8.0,11.5,90,0.00,CLR,OVC,0.00,0.0,WeatherDisplay:10.37,2013-01-13 09:50:00,
2013-01-13 04:55:00,59.2,56.3,30.15,West,261,5.7,7.0,90,0.00,CLR,OVC,0.00,0.0,WeatherDisplay:10.37,2013-01-13 09:55:00,
2013-01-13 04:57:00,59.3,56.4,30.15,WSW,248,9.3,11.5,90,0.00,CLR,OVC,0.00,0.0,WeatherDisplay:10.37,2013-01-13 09:57:00,
2013-01-13 05:00:00,59.3,56.4,30.15,WSW,246,6.4,11.5,90,0.00,CLR,OVC,0.00,0.0,WeatherDisplay:10.37,2013-01-13 10:00:00,
2013-01-13 05:02:00,59.5,56.6,30.15,WSW,246,7.0,10.4,90,0.00,CLR,OVC,0.00,0.0,WeatherDisplay:10.37,2013-01-13 10:02:00,
2013-01-13 05:03:00,59.5,56.6,30.15,WSW,246,6.6,8.1,90,0.00,CLR,OVC,0.00,0.0,WeatherDisplay:10.37,2013-01-13 10:03:00,
2013-01-13 05:05:00,59.5,56.6,30.15,SW,233,6.9,11.5,90,0.00,CLR,OVC,0.00,0.0,WeatherDisplay:10.37,2013-01-13 10:05:00,
2013-01-13 05:07:00,59.5,56.6,30.15,SW,233,7.5,9.2,90,0.00,CLR,OVC,0.00,0.0,WeatherDisplay:10.37,2013-01-13 10:07:00,
2013-01-13 05:10:00,59.6,56.4,30.15,SW,233,6.7,10.4,89,0.00,CLR,OVC,0.00,0.0,WeatherDisplay:10.37,2013-01-13 10:10:00,
2013-01-13 05:12:00,59.5,56.3,30.15,SW,233,6.4,11.5,89,0.00,CLR,OVC,0.00,0.0,WeatherDisplay:10.37,2013-01-13 10:12:00,
2013-01-13 05:13:00,59.5,56.3,30.15,SW,233,7.2,10.4,89,0.00,CLR,OVC,0.00,0.0,WeatherDisplay:10.37,2013-01-13 10:13:00,
2013-01-13 05:15:00,59.6,56.4,30.15,SW,233,7.9,11.5,89,0.00,CLR,OVC,0.00,0.0,WeatherDisplay:10.37,2013-01-13 10:15:00,
2013-01-13 05:16:00,59.6,56.4,30.15,SW,233,7.6,11.5,89,0.00,CLR,OVC,0.00,0.0,WeatherDisplay:10.37,2013-01-13 10:16:00,
2013-01-13 05:17:00,59.6,56.7,30.15,SW,232,9.3,11.5,90,0.00,CLR,OVC,0.00,0.0,WeatherDisplay:10.37,2013-01-13 10:17:00,
2013-01-13 05:20:00,59.9,57.0,30.15,SW,229,8.1,11.5,90,0.00,CLR,OVC,0.00,0.0,WeatherDisplay:10.37,2013-01-13 10:20:00,
2013-01-13 05:21:00,59.8,56.6,30.15,SW,229,6.3,11.5,89,0.00,CLR,OVC,0.00,0.0,WeatherDisplay:10.37,2013-01-13 10:21:00,
2013-01-13 05:22:00,59.8,56.2,30.15,SW,229,6.8,10.4,88,0.00,CLR,OVC,0.00,0.0,WeatherDisplay:10.37,2013-01-13 10:22:00,
2013-01-13 05:26:00,59.3,56.1,30.15,SW,229,8.6,12.0,89,0.00,CLR,OVC,0.00,0.0,WeatherDisplay:10.37,2013-01-13 10:26:00,
2013-01-13 05:28:00,59.3,56.1,30.15,SW,228,6.7,11.5,89,0.00,CLR,OVC,0.00,0.0,WeatherDisplay:10.37,2013-01-13 10:28:00,
2013-01-13 05:29:00,59.2,56.0,30.15,SW,228,6.2,10.0,89,0.00,CLR,OVC,0.00,0.0,WeatherDisplay:10.37,2013-01-13 10:29:00,
2013-01-13 05:31:00,59.5,56.6,30.15,SW,227,8.4,11.5,90,0.00,CLR,OVC,0.00,0.0,WeatherDisplay:10.37,2013-01-13 10:31:00,
2013-01-13 05:33:00,59.6,56.4,30.15,SW,227,8.8,11.5,89,0.00,CLR,OVC,0.00,0.0,WeatherDisplay:10.37,2013-01-13 10:33:00,
2013-01-13 05:34:00,59.6,56.7,30.15,SW,227,7.9,11.5,90,0.00,,OVC,0.00,0.0,WeatherDisplay:10.37,2013-01-13 10:34:00,
2013-01-13 05:36:00,59.6,56.4,30.15,SW,227,8.0,9.2,89,0.00,,OVC,0.00,0.0,WeatherDisplay:10.37,2013-01-13 10:36:00,
2013-01-13 05:38:00,59.8,56.6,30.15,SW,226,8.3,11.5,89,0.00,,OVC,0.00,0.0,WeatherDisplay:10.37,2013-01-13 10:38:00,
2013-01-13 05:39:00,59.8,56.6,30.15,SW,226,8.4,10.4,89,0.00,,OVC,0.00,0.0,WeatherDisplay:10.37,2013-01-13 10:39:00,
2013-01-13 05:40:00,59.6,56.0,30.15,SW,224,9.4,11.5,88,0.00,,OVC,0.00,0.0,WeatherDisplay:10.37,2013-01-13 10:40:00,
2013-01-13 05:42:00,59.6,56.4,30.15,SW,223,7.2,11.5,89,0.00,,OVC,0.00,0.0,WeatherDisplay:10.37,2013-01-13 10:42:00,
2013-01-13 05:43:00,59.6,56.4,30.15,SW,216,9.8,11.0,89,0.00,,OVC,0.00,0.0,WeatherDisplay:10.37,2013-01-13 10:43:00,
2013-01-13 05:44:00,59.6,56.4,30.15,SW,216,7.4,15.0,89,0.00,,OVC,0.00,0.0,WeatherDisplay:10.37,2013-01-13 10:44:00,
2013-01-13 05:48:00,59.9,56.6,30.16,SSW,213,12.3,15.0,89,0.00,,OVC,0.00,0.0,WeatherDisplay:10.37,2013-01-13 10:48:00,
2013-01-13 05:49:00,59.9,56.6,30.16,SSW,211,10.8,13.0,89,0.00,,OVC,0.00,0.0,WeatherDisplay:10.37,2013-01-13 10:49:00,
2013-01-13 05:52:00,60.1,56.8,30.16,SSW,209,10.6,17.3,89,0.00,,OVC,0.00,0.0,WeatherDisplay:10.37,2013-01-13 10:52:00,
2013-01-13 05:54:00,60.2,56.9,30.16,SSW,205,11.3,13.8,89,0.00,,OVC,0.00,0.0,WeatherDisplay:10.37,2013-01-13 10:54:00,
2013-01-13 05:55:00,60.2,56.9,30.16,SSW,205,10.3,11.5,89,0.00,,OVC,0.00,0.0,WeatherDisplay:10.37,2013-01-13 10:55:00,
2013-01-13 05:57:00,60.2,56.6,30.16,SSW,201,10.4,12.7,88,0.00,,OVC,0.00,0.0,WeatherDisplay:10.37,2013-01-13 10:57:00,
2013-01-13 06:00:00,60.1,56.5,30.16,SSW,208,10.7,13.8,88,0.00,,OVC,0.00,0.0,WeatherDisplay:10.37,2013-01-13 11:00:00,
2013-01-13 06:01:00,60.1,56.5,30.16,SSW,211,8.5,11.5,88,0.00,,OVC,0.00,0.0,WeatherDisplay:10.37,2013-01-13 11:01:00,
2013-01-13 06:02:00,60.1,56.5,30.16,SSW,211,8.7,11.5,88,0.00,,OVC,0.00,0.0,WeatherDisplay:10.37,2013-01-13 11:02:00,
2013-01-13 06:06:00,60.2,56.6,30.16,SSW,206,11.4,13.8,88,0.00,,OVC,0.00,0.0,WeatherDisplay:10.37,2013-01-13 11:06:00,
2013-01-13 06:08:00,60.4,57.1,30.16,SSW,204,10.6,13.8,89,0.00,,OVC,0.00,0.0,WeatherDisplay:10.37,2013-01-13 11:08:00,
2013-01-13 06:09:00,60.4,56.8,30.16,SSW,206,10.4,13.0,88,0.00,,OVC,0.00,0.0,WeatherDisplay:10.37,2013-01-13 11:09:00,
2013-01-13 06:12:00,60.5,56.9,30.16,SSW,206,9.4,11.5,88,0.00,,OVC,0.00,0.0,WeatherDisplay:10.37,2013-01-13 11:12:00,
2013-01-13 06:14:00,60.4,56.8,30.16,SSW,207,10.0,11.5,88,0.00,,OVC,0.00,0.0,WeatherDisplay:10.37,2013-01-13 11:14:00,
2013-01-13 06:15:00,60.5,56.9,30.16,SSW,206,9.0,18.0,88,0.00,,OVC,0.00,0.0,WeatherDisplay:10.37,2013-01-13 11:15:00,
2013-01-13 06:18:00,60.4,57.1,30.16,SSW,207,12.6,19.6,89,0.00,,OVC,0.00,0.0,WeatherDisplay:10.37,2013-01-13 11:18:00,
2013-01-13 06:20:00,60.5,56.9,30.16,SSW,200,14.0,18.4,88,0.00,,OVC,0.00,0.0,WeatherDisplay:10.37,2013-01-13 11:20:00,
2013-01-13 06:22:00,60.5,56.9,30.16,SSW,205,11.2,15.0,88,0.00,,OVC,0.00,0.0,WeatherDisplay:10.37,2013-01-13 11:22:00,
2013-01-13 06:23:00,60.5,56.9,30.16,SSW,205,9.4,15.0,88,0.00,,OVC,0.00,0.0,WeatherDisplay:10.37,2013-01-13 11:23:00,
2013-01-13 06:25:00,60.5,57.2,30.16,SSW,211,12.0,16.1,89,0.00,,OVC,0.00,0.0,WeatherDisplay:10.37,2013-01-13 11:25:00,
2013-01-13 06:27:00,60.5,57.2,30.16,SSW,207,11.8,14.0,89,0.00,,OVC,0.00,0.0,WeatherDisplay:10.37,2013-01-13 11:27:00,
2013-01-13 06:28:00,60.7,57.4,30.16,SSW,209,12.1,16.1,89,0.00,,OVC,0.00,0.0,WeatherDisplay:10.37,2013-01-13 11:28:00,
2013-01-13 06:29:00,60.7,57.4,30.16,SSW,210,11.0,15.0,89,0.00,,OVC,0.00,0.0,WeatherDisplay:10.37,2013-01-13 11:29:00,
2013-01-13 06:31:00,60.4,56.8,30.16,SSW,211,10.2,14.0,88,0.00,,OVC,0.00,0.0,WeatherDisplay:10.37,2013-01-13 11:31:00,
2013-01-13 06:32:00,60.5,56.9,30.17,SW,215,13.7,17.0,88,0.00,,OVC,0.00,0.0,WeatherDisplay:10.37,2013-01-13 11:32:00,
2013-01-13 06:34:00,60.5,57.2,30.17,SW,223,13.3,16.1,89,0.00,,OVC,0.00,0.0,WeatherDisplay:10.37,2013-01-13 11:34:00,
2013-01-13 06:35:00,60.5,57.2,30.17,SW,217,13.3,17.3,89,0.00,,OVC,0.00,0.0,WeatherDisplay:10.37,2013-01-13 11:35:00,
2013-01-13 06:38:00,60.5,57.2,30.17,SW,218,11.5,13.8,89,0.00,,OVC,0.00,0.0,WeatherDisplay:10.37,2013-01-13 11:38:00,
2013-01-13 06:39:00,60.5,57.2,30.17,SW,215,12.0,12.7,89,0.00,,OVC,0.00,0.0,WeatherDisplay:10.37,2013-01-13 11:39:00,
2013-01-13 06:40:00,60.5,57.2,30.17,SW,215,12.4,12.7,89,0.00,,OVC,0.00,0.0,WeatherDisplay:10.37,2013-01-13 11:40:00,
2013-01-13 06:41:00,60.5,57.2,30.17,SSW,211,10.3,12.7,89,0.00,,OVC,0.00,0.0,WeatherDisplay:10.37,2013-01-13 11:41:00,
2013-01-13 06:43:00,60.4,57.1,30.17,SW,214,11.8,13.0,89,0.00,,OVC,0.00,0.0,WeatherDisplay:10.37,2013-01-13 11:43:00,
2013-01-13 06:44:00,60.4,57.1,30.17,SSW,213,12.6,15.0,89,0.00,,OVC,0.00,0.0,WeatherDisplay:10.37,2013-01-13 11:44:00,
2013-01-13 06:45:00,60.4,57.1,30.17,SW,214,10.2,15.0,89,0.00,,OVC,0.00,0.0,WeatherDisplay:10.37,2013-01-13 11:45:00,
2013-01-13 06:47:00,60.4,57.1,30.17,SSW,211,9.9,12.0,89,0.00,,OVC,0.00,0.0,WeatherDisplay:10.37,2013-01-13 11:47:00,
2013-01-13 06:50:00,60.4,57.5,30.17,SSW,207,12.3,13.8,90,0.00,,OVC,0.00,0.0,WeatherDisplay:10.37,2013-01-13 11:50:00,
2013-01-13 06:51:00,60.4,57.5,30.17,SSW,206,10.3,16.1,90,0.00,,OVC,0.00,0.0,WeatherDisplay:10.37,2013-01-13 11:51:00,
2013-01-13 06:54:00,60.1,56.8,30.17,SSW,207,8.2,10.4,89,0.00,,OVC,0.00,0.0,WeatherDisplay:10.37,2013-01-13 11:54:00,
2013-01-13 06:55:00,60.1,57.2,30.17,SW,226,10.7,15.0,90,0.00,,OVC,0.00,0.0,WeatherDisplay:10.37,2013-01-13 11:55:00,
2013-01-13 06:56:00,60.1,57.2,30.17,SW,217,10.1,15.0,90,0.00,,OVC,0.00,0.0,WeatherDisplay:10.37,2013-01-13 11:56:00,
2013-01-13 06:57:00,60.1,57.2,30.17,SSW,213,11.3,13.0,90,0.00,,OVC,0.00,0.0,WeatherDisplay:10.37,2013-01-13 11:57:00,
2013-01-13 07:00:00,60.2,57.3,30.17,SSW,207,10.5,12.7,90,0.00,OVC,,0.00,0.0,WeatherDisplay:10.37,2013-01-13 12:00:00,
2013-01-13 07:02:00,60.1,57.2,30.17,SSW,207,8.1,10.4,90,0.00,OVC,,0.00,0.0,WeatherDisplay:10.37,2013-01-13 12:02:00,
2013-01-13 07:03:00,60.1,57.2,30.17,SSW,204,10.9,12.0,90,0.00,OVC,,0.00,0.0,WeatherDisplay:10.37,2013-01-13 12:03:00,
2013-01-13 07:04:00,60.2,57.6,30.17,SSW,204,10.5,13.0,91,0.00,OVC,,0.00,0.0,WeatherDisplay:10.37,2013-01-13 12:04:00,
2013-01-13 07:07:00,60.2,57.6,30.17,SSW,210,11.8,16.0,91,0.00,OVC,,0.00,0.0,WeatherDisplay:10.37,2013-01-13 12:07:00,
2013-01-13 07:08:00,60.2,57.6,30.17,SSW,206,12.7,17.3,91,0.00,OVC,,0.00,0.0,WeatherDisplay:10.37,2013-01-13 12:08:00,
2013-01-13 07:12:00,60.2,57.6,30.17,SSW,207,10.4,13.8,91,0.00,OVC,,0.00,0.0,WeatherDisplay:10.37,2013-01-13 12:12:00,
2013-01-13 07:13:00,60.2,57.6,30.17,SSW,207,8.6,11.5,91,0.00,OVC,,0.00,0.0,WeatherDisplay:10.37,2013-01-13 12:13:00,
2013-01-13 07:15:00,60.2,57.6,30.17,SSW,208,13.0,17.0,91,0.00,OVC,OVC,0.00,0.0,WeatherDisplay:10.37,2013-01-13 12:15:00,
2013-01-13 07:18:00,60.2,57.6,30.18,SSW,211,8.6,11.5,91,0.00,OVC,,0.00,0.0,WeatherDisplay:10.37,2013-01-13 12:18:00,
2013-01-13 07:20:00,60.2,57.6,30.18,SSW,210,5.9,10.4,91,0.00,OVC,,0.00,0.0,WeatherDisplay:10.37,2013-01-13 12:20:00,
2013-01-13 07:21:00,60.1,57.5,30.18,SSW,212,9.2,11.5,91,0.00,OVC,,0.00,0.0,WeatherDisplay:10.37,2013-01-13 12:21:00,
2013-01-13 07:23:00,60.1,57.5,30.18,SSW,210,9.1,11.5,91,0.00,OVC,,0.00,0.0,WeatherDisplay:10.37,2013-01-13 12:23:00,
2013-01-13 07:25:00,59.9,57.3,30.18,SSW,210,8.0,12.7,91,0.00,OVC,,0.00,0.0,WeatherDisplay:10.37,2013-01-13 12:25:00,
2013-01-13 07:26:00,59.9,57.3,30.18,SSW,207,11.0,11.5,91,0.00,OVC,,0.00,0.0,WeatherDisplay:10.37,2013-01-13 12:26:00,
2013-01-13 07:28:00,60.1,57.8,30.18,SSW,202,8.7,13.8,92,0.00,OVC,,0.00,0.0,WeatherDisplay:10.37,2013-01-13 12:28:00,
2013-01-13 07:31:00,60.1,57.5,30.18,SSW,198,8.7,19.6,91,0.00,OVC,,0.00,0.0,WeatherDisplay:10.37,2013-01-13 12:31:00,
2013-01-13 07:33:00,59.9,57.3,30.17,SSW,196,11.3,13.8,91,0.00,OVC,,0.00,5.0,WeatherDisplay:10.37,2013-01-13 12:33:00,
2013-01-13 07:35:00,59.9,57.3,30.17,SSW,198,8.1,12.7,91,0.00,OVC,,0.00,7.0,WeatherDisplay:10.37,2013-01-13 12:35:00,
2013-01-13 07:36:00,59.9,57.3,30.17,SSW,198,8.1,12.7,91,0.00,OVC,,0.00,9.0,WeatherDisplay:10.37,2013-01-13 12:36:00,
2013-01-13 07:37:00,59.9,57.6,30.17,SSW,198,11.0,14.0,92,0.00,OVC,,0.00,11.0,WeatherDisplay:10.37,2013-01-13 12:37:00,
2013-01-13 07:40:00,60.1,57.8,30.17,SSW,201,11.5,15.0,92,0.00,OVC,,0.00,12.0,WeatherDisplay:10.37,2013-01-13 12:40:00,
2013-01-13 07:41:00,60.1,57.8,30.17,SSW,202,9.5,11.5,92,0.00,OVC,,0.00,14.0,WeatherDisplay:10.37,2013-01-13 12:41:00,
2013-01-13 07:42:00,60.1,57.5,30.17,SSW,202,9.6,11.5,91,0.00,OVC,,0.00,14.0,WeatherDisplay:10.37,2013-01-13 12:42:00,
2013-01-13 07:45:00,60.1,57.5,30.17,SSW,204,8.8,11.5,91,0.00,OVC,,0.00,18.0,WeatherDisplay:10.37,2013-01-13 12:45:00,
2013-01-13 07:48:00,59.9,57.3,30.18,SSW,204,6.9,9.2,91,0.00,OVC,,0.00,21.0,WeatherDisplay:10.37,2013-01-13 12:48:00,
2013-01-13 07:51:00,59.9,57.3,30.18,SSW,204,6.1,9.2,91,0.00,OVC,,0.00,30.0,WeatherDisplay:10.37,2013-01-13 12:51:00,
2013-01-13 07:52:00,59.8,57.2,30.18,SSW,204,7.0,10.0,91,0.00,OVC,,0.00,28.0,WeatherDisplay:10.37,2013-01-13 12:52:00,
2013-01-13 07:54:00,59.6,57.0,30.18,SSW,198,10.5,13.0,91,0.00,OVC,,0.00,28.0,WeatherDisplay:10.37,2013-01-13 12:54:00,
2013-01-13 07:57:00,59.8,57.5,30.18,SSW,201,10.9,15.0,92,0.00,OVC,,0.00,35.0,WeatherDisplay:10.37,2013-01-13 12:57:00,
2013-01-13 07:58:00,59.8,57.5,30.18,SSW,201,8.1,10.4,92,0.00,OVC,,0.00,44.0,WeatherDisplay:10.37,2013-01-13 12:58:00,
2013-01-13 08:02:00,59.9,57.6,30.18,SSW,197,9.9,12.0,92,0.00,OVC,,0.00,74.0,WeatherDisplay:10.37,2013-01-13 13:02:00,
2013-01-13 08:03:00,59.9,57.6,30.19,SSW,197,9.9,12.0,92,0.00,OVC,,0.00,76.0,WeatherDisplay:10.37,2013-01-13 13:03:00,
2013-01-13 08:04:00,59.9,57.6,30.19,SSW,198,10.0,12.7,92,0.00,OVC,,0.00,79.0,WeatherDisplay:10.37,2013-01-13 13:04:00,
2013-01-13 08:07:00,60.1,57.8,30.19,SSW,206,10.3,12.7,92,0.00,OVC,,0.00,90.0,WeatherDisplay:10.37,2013-01-13 13:07:00,
2013-01-13 08:08:00,60.1,57.8,30.19,SSW,213,12.5,15.0,92,0.00,OVC,,0.00,93.0,WeatherDisplay:10.37,2013-01-13 13:08:00,
2013-01-13 08:09:00,60.1,57.8,30.19,SSW,210,11.4,15.0,92,0.00,OVC,,0.00,97.0,WeatherDisplay:10.37,2013-01-13 13:09:00,
2013-01-13 08:12:00,60.2,57.6,30.19,SSW,207,7.3,11.5,91,0.00,OVC,,0.00,102.0,WeatherDisplay:10.37,2013-01-13 13:12:00,
2013-01-13 08:14:00,60.2,57.6,30.19,SSW,207,8.1,10.4,91,0.00,OVC,,0.00,97.0,WeatherDisplay:10.37,2013-01-13 13:14:00,
2013-01-13 08:15:00,60.2,57.6,30.19,SSW,207,8.0,15.0,91,0.00,OVC,OVC,0.00,97.0,WeatherDisplay:10.37,2013-01-13 13:15:00,
2013-01-13 08:18:00,60.4,57.8,30.19,SSW,203,9.7,12.0,91,0.00,OVC,,0.00,77.0,WeatherDisplay:10.37,2013-01-13 13:18:00,
2013-01-13 08:19:00,60.4,57.8,30.19,SSW,202,8.2,11.5,91,0.00,OVC,,0.00,79.0,WeatherDisplay:10.37,2013-01-13 13:19:00,
2013-01-13 08:22:00,60.4,57.8,30.19,SSW,206,8.5,13.8,91,0.00,OVC,,0.00,77.0,WeatherDisplay:10.37,2013-01-13 13:22:00,
2013-01-13 08:24:00,60.4,57.8,30.19,SSW,205,8.9,11.5,91,0.00,OVC,,0.00,77.0,WeatherDisplay:10.37,2013-01-13 13:24:00,
2013-01-13 08:25:00,60.4,57.8,30.19,SSW,206,11.1,12.7,91,0.00,OVC,,0.00,86.0,WeatherDisplay:10.37,2013-01-13 13:25:00,
2013-01-13 08:29:00,60.5,57.9,30.19,SSW,209,13.1,13.8,91,0.00,OVC,,0.00,125.0,WeatherDisplay:10.37,2013-01-13 13:29:00,
2013-01-13 08:30:00,60.5,57.8,30.19,SSW,207,13.0,16.0,91,0.00,OVC,OVC,0.00,125.0,WeatherDisplay:10.37,2013-01-13 13:30:00,
2013-01-13 08:34:00,60.7,57.7,30.20,SSW,211,11.6,13.8,90,0.00,OVC,,0.00,81.0,WeatherDisplay:10.37,2013-01-13 13:34:00,
2013-01-13 08:36:00,60.7,57.7,30.20,SSW,207,10.2,12.7,90,0.00,OVC,,0.00,79.0,WeatherDisplay:10.37,2013-01-13 13:36:00,
2013-01-13 08:38:00,60.9,57.6,30.20,SSW,211,10.4,16.1,89,0.00,OVC,,0.00,86.0,WeatherDisplay:10.37,2013-01-13 13:38:00,
2013-01-13 08:39:00,60.9,57.6,30.20,SW,219,12.1,18.4,89,0.00,OVC,,0.00,76.0,WeatherDisplay:10.37,2013-01-13 13:39:00,
2013-01-13 08:41:00,61.0,57.7,30.20,SSW,211,12.5,16.1,89,0.00,OVC,,0.00,63.0,WeatherDisplay:10.37,2013-01-13 13:41:00,
2013-01-13 08:42:00,61.0,57.4,30.20,SSW,209,12.4,16.0,88,0.00,OVC,,0.00,63.0,WeatherDisplay:10.37,2013-01-13 13:42:00,
2013-01-13 08:43:00,61.0,57.4,30.20,SSW,211,12.7,19.0,88,0.00,OVC,,0.00,62.0,WeatherDisplay:10.37,2013-01-13 13:43:00,
2013-01-13 08:44:00,61.0,57.4,30.20,SW,216,14.7,19.6,88,0.00,OVC,,0.00,63.0,WeatherDisplay:10.37,2013-01-13 13:44:00,
2013-01-13 08:47:00,61.2,57.6,30.20,SW,220,12.6,15.0,88,0.00,OVC,,0.00,70.0,WeatherDisplay:10.37,2013-01-13 13:47:00,
2013-01-13 08:48:00,61.2,57.3,30.20,SW,222,13.9,16.0,87,0.00,OVC,,0.00,62.0,WeatherDisplay:10.37,2013-01-13 13:48:00,
2013-01-13 08:52:00,61.2,57.3,30.20,SSW,207,14.1,18.4,87,0.00,OVC,,0.00,56.0,WeatherDisplay:10.37,2013-01-13 13:52:00,
2013-01-13 08:53:00,61.2,57.3,30.20,SW,215,12.7,18.4,87,0.00,OVC,,0.00,60.0,WeatherDisplay:10.37,2013-01-13 13:53:00,
2013-01-13 08:55:00,61.2,57.3,30.20,SW,215,13.2,16.1,87,0.00,OVC,,0.00,67.0,WeatherDisplay:10.37,2013-01-13 13:55:00,
2013-01-13 08:57:00,61.2,57.3,30.20,SSW,213,12.7,16.1,87,0.00,OVC,,0.00,72.0,WeatherDisplay:10.37,2013-01-13 13:57:00,
2013-01-13 08:58:00,61.2,57.3,30.20,SW,216,13.9,16.1,87,0.00,OVC,,0.00,76.0,WeatherDisplay:10.37,2013-01-13 13:58:00,
2013-01-13 08:59:00,61.2,57.3,30.20,SW,225,11.9,17.3,87,0.00,OVC,,0.00,79.0,WeatherDisplay:10.37,2013-01-13 13:59:00,
2013-01-13 09:00:00,61.2,57.3,30.20,SW,217,14.6,16.1,87,0.00,OVC,,0.00,81.0,WeatherDisplay:10.37,2013-01-13 14:00:00,
2013-01-13 09:02:00,61.2,57.0,30.20,SW,227,14.0,16.1,86,0.00,OVC,,0.00,86.0,WeatherDisplay:10.37,2013-01-13 14:02:00,
2013-01-13 09:04:00,61.0,56.8,30.21,SSW,202,12.7,14.0,86,0.00,OVC,,0.00,93.0,WeatherDisplay:10.37,2013-01-13 14:04:00,
2013-01-13 09:05:00,61.0,56.8,30.21,SSW,205,12.7,14.0,86,0.00,OVC,,0.00,93.0,WeatherDisplay:10.37,2013-01-13 14:05:00,
2013-01-13 09:06:00,61.0,57.1,30.21,SW,227,12.7,13.8,87,0.00,OVC,,0.00,93.0,WeatherDisplay:10.37,2013-01-13 14:06:00,
2013-01-13 09:09:00,61.0,57.1,30.21,SW,227,12.7,18.4,87,0.00,OVC,,0.00,97.0,WeatherDisplay:10.37,2013-01-13 14:09:00,
2013-01-13 09:10:00,61.0,57.1,30.21,SW,225,14.2,17.3,87,0.00,OVC,,0.00,95.0,WeatherDisplay:10.37,2013-01-13 14:10:00,
2013-01-13 09:11:00,61.0,57.1,30.21,SW,221,12.8,18.4,87,0.00,OVC,,0.00,95.0,WeatherDisplay:10.37,2013-01-13 14:11:00,
2013-01-13 09:12:00,61.0,57.1,30.21,SW,220,11.4,13.8,87,0.00,OVC,,0.00,95.0,WeatherDisplay:10.37,2013-01-13 14:12:00,
2013-01-13 09:16:00,60.9,57.0,30.21,SW,230,13.8,16.1,87,0.00,OVC,,0.00,123.0,WeatherDisplay:10.37,2013-01-13 14:16:00,
2013-01-13 09:17:00,60.9,57.0,30.21,SW,228,13.0,16.1,87,0.00,OVC,,0.00,113.0,WeatherDisplay:10.37,2013-01-13 14:17:00,
2013-01-13 09:18:00,60.9,57.0,30.22,SW,231,15.0,17.0,87,0.00,OVC,,0.00,109.0,WeatherDisplay:10.37,2013-01-13 14:18:00,
2013-01-13 09:22:00,60.7,56.8,30.22,SSW,211,12.4,15.0,87,0.00,OVC,,0.00,130.0,WeatherDisplay:10.37,2013-01-13 14:22:00,
2013-01-13 09:23:00,60.7,56.8,30.22,SW,224,12.5,15.0,87,0.00,OVC,,0.00,134.0,WeatherDisplay:10.37,2013-01-13 14:23:00,
2013-01-13 09:28:00,60.7,56.8,30.22,SW,219,13.5,19.6,87,0.00,OVC,,0.00,206.0,WeatherDisplay:10.37,2013-01-13 14:28:00,
2013-01-13 09:29:00,60.9,57.0,30.22,SW,224,11.2,19.6,87,0.00,OVC,,0.00,211.0,WeatherDisplay:10.37,2013-01-13 14:29:00,
2013-01-13 09:32:00,60.9,57.0,30.22,SSW,211,15.9,20.7,87,0.00,OVC,,0.00,276.0,WeatherDisplay:10.37,2013-01-13 14:32:00,
2013-01-13 09:34:00,61.0,57.4,30.22,SW,233,10.2,11.5,88,0.00,OVC,,0.00,301.0,WeatherDisplay:10.37,2013-01-13 14:34:00,
2013-01-13 09:35:00,61.0,57.4,30.22,SW,227,10.8,13.0,88,0.00,OVC,,0.00,301.0,WeatherDisplay:10.37,2013-01-13 14:35:00,
2013-01-13 09:37:00,61.0,57.1,30.22,SW,223,13.1,15.0,87,0.00,OVC,,0.00,188.0,WeatherDisplay:10.37,2013-01-13 14:37:00,
2013-01-13 09:38:00,61.0,57.1,30.22,SW,222,11.8,18.4,87,0.00,OVC,,0.00,188.0,WeatherDisplay:10.37,2013-01-13 14:38:00,
2013-01-13 09:39:00,61.2,57.3,30.22,SW,223,7.5,11.5,87,0.00,OVC,,0.00,195.0,WeatherDisplay:10.37,2013-01-13 14:39:00,
2013-01-13 09:40:00,61.2,57.3,30.22,SW,219,8.2,12.0,87,0.00,OVC,,0.00,195.0,WeatherDisplay:10.37,2013-01-13 14:40:00,
2013-01-13 09:43:00,61.2,57.3,30.22,SW,227,15.8,18.4,87,0.00,OVC,,0.00,130.0,WeatherDisplay:10.37,2013-01-13 14:43:00,
2013-01-13 09:45:00,61.2,57.3,30.22,SW,220,16.0,21.0,87,0.00,OVC,OVC,0.00,172.0,WeatherDisplay:10.37,2013-01-13 14:45:00,
2013-01-13 09:47:00,61.2,57.0,30.22,SSW,208,11.8,17.3,86,0.00,OVC,,0.00,267.0,WeatherDisplay:10.37,2013-01-13 14:47:00,
2013-01-13 09:50:00,61.5,57.3,30.22,SW,222,13.6,16.1,86,0.00,OVC,,0.00,178.0,WeatherDisplay:10.37,2013-01-13 14:50:00,
2013-01-13 09:51:00,61.3,57.1,30.22,SW,222,12.7,16.1,86,0.00,OVC,,0.00,114.0,WeatherDisplay:10.37,2013-01-13 14:51:00,
2013-01-13 09:52:00,61.5,56.9,30.22,SW,230,14.1,15.0,85,0.00,OVC,,0.00,107.0,WeatherDisplay:10.37,2013-01-13 14:52:00,
2013-01-13 09:53:00,61.3,56.8,30.22,SW,225,15.4,15.4,85,0.00,OVC,,0.00,107.0,WeatherDisplay:10.37,2013-01-13 14:53:00,
2013-01-13 09:57:00,61.5,57.3,30.22,SW,234,13.8,16.1,86,0.00,OVC,,0.00,269.0,WeatherDisplay:10.37,2013-01-13 14:57:00,
2013-01-13 09:58:00,61.6,57.4,30.22,SW,234,10.7,16.1,86,0.00,OVC,,0.00,316.0,WeatherDisplay:10.37,2013-01-13 14:58:00,
2013-01-13 10:02:00,61.8,57.2,30.22,SW,220,14.1,15.0,85,0.00,OVC,,0.00,362.0,WeatherDisplay:10.37,2013-01-13 15:02:00,
2013-01-13 10:03:00,62.1,57.9,30.22,SW,227,10.8,15.0,86,0.00,OVC,,0.00,387.0,WeatherDisplay:10.37,2013-01-13 15:03:00,
2013-01-13 10:05:00,62.1,57.5,30.22,SW,215,11.9,17.3,85,0.00,OVC,,0.00,403.0,WeatherDisplay:10.37,2013-01-13 15:05:00,
2013-01-13 10:07:00,62.3,57.4,30.22,SW,219,13.9,17.3,84,0.00,OVC,,0.00,380.0,WeatherDisplay:10.37,2013-01-13 15:07:00,
2013-01-13 10:09:00,62.4,57.5,30.22,SW,222,13.2,17.3,84,0.00,OVC,,0.00,383.0,WeatherDisplay:10.37,2013-01-13 15:09:00,
2013-01-13 10:10:00,62.4,57.5,30.22,SW,217,12.8,16.0,84,0.00,OVC,,0.00,373.0,WeatherDisplay:10.37,2013-01-13 15:10:00,
2013-01-13 10:12:00,62.6,57.7,30.22,SW,218,14.2,16.1,84,0.00,OVC,,0.00,388.0,WeatherDisplay:10.37,2013-01-13 15:12:00,
2013-01-13 10:13:00,62.6,57.7,30.22,SW,233,11.2,16.1,84,0.00,OVC,,0.00,394.0,WeatherDisplay:10.37,2013-01-13 15:13:00,
2013-01-13 10:16:00,62.9,58.0,30.22,SW,219,13.9,16.1,84,0.00,OVC,,0.00,394.0,WeatherDisplay:10.37,2013-01-13 15:16:00,
2013-01-13 10:17:00,62.9,57.7,30.22,SW,216,13.1,17.3,83,0.00,OVC,,0.00,348.0,WeatherDisplay:10.37,2013-01-13 15:17:00,
2013-01-13 10:19:00,63.1,57.9,30.22,SW,218,13.0,16.1,83,0.00,OVC,,0.00,417.0,WeatherDisplay:10.37,2013-01-13 15:19:00,
2013-01-13 10:24:00,63.4,57.8,30.22,SW,236,12.0,13.8,82,0.00,OVC,,0.00,417.0,WeatherDisplay:10.37,2013-01-13 15:24:00,
2013-01-13 10:25:00,63.5,58.2,30.22,SW,236,12.9,17.0,83,0.00,OVC,,0.00,420.0,WeatherDisplay:10.37,2013-01-13 15:25:00,
2013-01-13 10:28:00,63.7,57.8,30.22,SW,227,16.0,19.6,81,0.00,OVC,,0.00,329.0,WeatherDisplay:10.37,2013-01-13 15:28:00,
2013-01-13 10:29:00,63.7,57.8,30.22,SW,218,14.8,19.6,81,0.00,OVC,,0.00,329.0,WeatherDisplay:10.37,2013-01-13 15:29:00,
2013-01-13 10:30:00,63.7,57.8,30.22,SW,228,13.6,18.4,81,0.00,OVC,,0.00,181.0,WeatherDisplay:10.37,2013-01-13 15:30:00,
2013-01-13 10:33:00,63.7,57.8,30.21,SW,225,16.7,20.7,81,0.00,OVC,,0.00,265.0,WeatherDisplay:10.37,2013-01-13 15:33:00,
2013-01-13 10:34:00,63.7,57.8,30.21,SW,223,16.2,19.6,81,0.00,OVC,,0.00,306.0,WeatherDisplay:10.37,2013-01-13 15:34:00,
2013-01-13 10:35:00,63.7,57.8,30.21,SW,218,14.6,19.6,81,0.00,OVC,,0.00,308.0,WeatherDisplay:10.37,2013-01-13 15:35:00,
2013-01-13 10:37:00,63.9,58.0,30.21,SW,215,11.0,15.0,81,0.00,OVC,,0.00,374.0,WeatherDisplay:10.37,2013-01-13 15:37:00,
2013-01-13 10:39:00,64.2,58.2,30.21,SW,232,12.0,17.0,81,0.00,OVC,,0.00,446.0,WeatherDisplay:10.37,2013-01-13 15:39:00,
2013-01-13 10:41:00,64.3,58.0,30.21,SW,232,14.9,18.4,80,0.00,OVC,,0.00,445.0,WeatherDisplay:10.37,2013-01-13 15:41:00,
2013-01-13 10:43:00,64.5,58.2,30.21,WSW,241,12.1,13.8,80,0.00,OVC,,0.00,434.0,WeatherDisplay:10.37,2013-01-13 15:43:00,
2013-01-13 10:46:00,64.8,58.1,30.21,SSW,211,16.6,18.4,79,0.00,OVC,,0.00,448.0,WeatherDisplay:10.37,2013-01-13 15:46:00,
2013-01-13 10:47:00,64.8,57.8,30.20,SW,223,14.2,19.6,78,0.00,OVC,,0.00,450.0,WeatherDisplay:10.37,2013-01-13 15:47:00,
2013-01-13 10:51:00,65.2,58.2,30.20,SW,236,10.9,13.8,78,0.00,OVC,,0.00,459.0,WeatherDisplay:10.37,2013-01-13 15:51:00,
2013-01-13 10:52:00,65.3,58.3,30.20,SW,227,12.2,13.8,78,0.00,OVC,,0.00,462.0,WeatherDisplay:10.37,2013-01-13 15:52:00,
2013-01-13 10:53:00,65.5,58.8,30.20,SW,234,9.7,15.0,79,0.00,OVC,,0.00,464.0,WeatherDisplay:10.37,2013-01-13 15:53:00,
2013-01-13 10:55:00,65.6,58.2,30.20,SSW,212,10.5,12.0,77,0.00,OVC,,0.00,475.0,WeatherDisplay:10.37,2013-01-13 15:55:00,
2013-01-13 10:57:00,66.0,58.6,30.20,SW,229,9.3,11.5,77,0.00,OVC,,0.00,473.0,WeatherDisplay:10.37,2013-01-13 15:57:00,
2013-01-13 10:58:00,66.1,58.7,30.20,SSW,206,12.0,16.1,77,0.00,OVC,,0.00,473.0,WeatherDisplay:10.37,2013-01-13 15:58:00,
2013-01-13 10:59:00,66.1,58.7,30.20,SSW,212,13.2,18.0,77,0.00,OVC,,0.00,480.0,WeatherDisplay:10.37,2013-01-13 15:59:00,
2013-01-13 11:01:00,66.3,58.9,30.20,SW,221,12.1,15.0,77,0.00,OVC,,0.00,494.0,WeatherDisplay:10.37,2013-01-13 16:01:00,
2013-01-13 11:03:00,66.4,59.0,30.20,WSW,240,11.2,12.7,77,0.00,OVC,,0.00,494.0,WeatherDisplay:10.37,2013-01-13 16:03:00,
2013-01-13 11:04:00,66.6,58.4,30.20,SW,224,8.7,12.7,75,0.00,OVC,,0.00,494.0,WeatherDisplay:10.37,2013-01-13 16:04:00,
2013-01-13 11:06:00,66.9,59.1,30.20,SW,229,13.6,17.0,76,0.00,OVC,,0.00,485.0,WeatherDisplay:10.37,2013-01-13 16:06:00,
2013-01-13 11:08:00,67.1,58.9,30.20,SW,233,7.2,12.7,75,0.00,OVC,,0.00,308.0,WeatherDisplay:10.37,2013-01-13 16:08:00,
2013-01-13 11:09:00,67.3,59.1,30.20,SSW,208,8.8,11.0,75,0.00,OVC,,0.00,290.0,WeatherDisplay:10.37,2013-01-13 16:09:00,
2013-01-13 11:10:00,67.3,58.7,30.20,SSW,197,9.8,13.0,74,0.00,OVC,,0.00,295.0,WeatherDisplay:10.37,2013-01-13 16:10:00,
2013-01-13 11:11:00,67.3,58.7,30.20,SW,224,11.0,13.8,74,0.00,OVC,,0.00,290.0,WeatherDisplay:10.37,2013-01-13 16:11:00,
2013-01-13 11:13:00,67.3,58.7,30.20,SW,219,10.0,13.0,74,0.00,OVC,,0.00,415.0,WeatherDisplay:10.37,2013-01-13 16:13:00,
2013-01-13 11:14:00,67.3,58.7,30.20,SSW,209,10.6,12.7,74,0.00,OVC,,0.00,415.0,WeatherDisplay:10.37,2013-01-13 16:14:00,
2013-01-13 11:17:00,67.3,58.3,30.20,SW,222,8.7,12.7,73,0.00,OVC,,0.00,264.0,WeatherDisplay:10.37,2013-01-13 16:17:00,
2013-01-13 11:19:00,67.3,58.7,30.18,SW,226,6.8,9.2,74,0.00,OVC,,0.00,265.0,WeatherDisplay:10.37,2013-01-13 16:19:00,
2013-01-13 11:22:00,67.4,58.4,30.18,SW,233,14.7,19.6,73,0.00,OVC,,0.00,369.0,WeatherDisplay:10.37,2013-01-13 16:22:00,
2013-01-13 11:23:00,67.6,58.6,30.18,WSW,250,11.8,17.3,73,0.00,OVC,,0.00,369.0,WeatherDisplay:10.37,2013-01-13 16:23:00,
2013-01-13 11:24:00,67.6,58.6,30.18,WSW,247,12.5,17.3,73,0.00,OVC,,0.00,204.0,WeatherDisplay:10.37,2013-01-13 16:24:00,
2013-01-13 11:26:00,67.4,58.4,30.18,WSW,247,13.4,18.0,73,0.00,OVC,,0.00,186.0,WeatherDisplay:10.37,2013-01-13 16:26:00,
2013-01-13 11:27:00,67.4,58.4,30.18,WSW,256,15.2,19.6,73,0.00,OVC,,0.00,204.0,WeatherDisplay:10.37,2013-01-13 16:27:00,
2013-01-13 11:29:00,67.4,58.4,30.18,WSW,242,11.6,17.3,73,0.00,OVC,,0.00,350.0,WeatherDisplay:10.37,2013-01-13 16:29:00,
2013-01-13 11:30:00,67.4,58.4,30.18,WSW,239,13.1,18.4,73,0.00,OVC,,0.00,383.0,WeatherDisplay:10.37,2013-01-13 16:30:00,
2013-01-13 11:31:00,67.4,58.8,30.18,WSW,237,16.5,21.0,74,0.00,OVC,,0.00,383.0,WeatherDisplay:10.37,2013-01-13 16:31:00,
2013-01-13 11:32:00,67.6,58.6,30.18,WSW,257,14.4,25.3,73,0.00,OVC,,0.00,417.0,WeatherDisplay:10.37,2013-01-13 16:32:00,
2013-01-13 11:34:00,67.8,59.2,30.18,SW,218,11.3,18.0,74,0.00,OVC,,0.00,438.0,WeatherDisplay:10.37,2013-01-13 16:34:00,
2013-01-13 11:35:00,67.9,58.9,30.18,SW,217,15.7,18.4,73,0.00,OVC,,0.00,438.0,WeatherDisplay:10.37,2013-01-13 16:35:00,
2013-01-13 11:38:00,68.1,59.1,30.18,SW,235,14.6,18.4,73,0.00,OVC,,0.00,438.0,WeatherDisplay:10.37,2013-01-13 16:38:00,
2013-01-13 11:39:00,68.1,58.7,30.18,WSW,250,12.8,16.1,72,0.00,OVC,,0.00,541.0,WeatherDisplay:10.37,2013-01-13 16:39:00,
2013-01-13 11:40:00,68.3,58.9,30.18,SW,226,11.2,15.0,72,0.00,OVC,,0.00,534.0,WeatherDisplay:10.37,2013-01-13 16:40:00,
2013-01-13 11:43:00,68.4,59.0,30.18,SW,234,11.5,18.4,72,0.00,OVC,,0.00,209.0,WeatherDisplay:10.37,2013-01-13 16:43:00,
2013-01-13 11:44:00,68.4,59.0,30.18,SW,234,12.1,16.1,72,0.00,OVC,,0.00,223.0,WeatherDisplay:10.37,2013-01-13 16:44:00,
2013-01-13 11:45:00,68.4,59.0,30.18,SW,233,12.0,25.0,72,0.00,OVC,OVC,0.00,223.0,WeatherDisplay:10.37,2013-01-13 16:45:00,
2013-01-13 11:49:00,68.4,59.0,30.17,West,262,13.4,17.3,72,0.00,OVC,,0.00,206.0,WeatherDisplay:10.37,2013-01-13 16:49:00,
2013-01-13 11:50:00,68.4,59.0,30.17,West,265,11.0,17.3,72,0.00,OVC,,0.00,206.0,WeatherDisplay:10.37,2013-01-13 16:50:00,
2013-01-13 11:51:00,68.4,59.0,30.17,WSW,244,10.2,14.0,72,0.00,OVC,,0.00,172.0,WeatherDisplay:10.37,2013-01-13 16:51:00,
2013-01-13 11:52:00,68.3,58.9,30.17,WSW,254,11.4,13.8,72,0.00,OVC,,0.00,197.0,WeatherDisplay:10.37,2013-01-13 16:52:00,
2013-01-13 11:54:00,68.1,58.7,30.17,WSW,244,12.3,18.4,72,0.00,OVC,,0.00,183.0,WeatherDisplay:10.37,2013-01-13 16:54:00,
2013-01-13 11:56:00,68.1,58.7,30.17,WSW,246,14.1,17.3,72,0.00,OVC,,0.00,209.0,WeatherDisplay:10.37,2013-01-13 16:56:00,
2013-01-13 11:57:00,68.1,58.7,30.17,SW,236,12.3,17.3,72,0.00,OVC,,0.00,244.0,WeatherDisplay:10.37,2013-01-13 16:57:00,
2013-01-13 12:00:00,68.1,59.1,30.17,WSW,249,13.9,18.4,73,0.00,OVC,,0.00,195.0,WeatherDisplay:10.37,2013-01-13 17:00:00,
2013-01-13 12:02:00,68.1,59.1,30.17,WSW,238,15.6,19.6,73,0.00,OVC,,0.00,158.0,WeatherDisplay:10.37,2013-01-13 17:02:00,
2013-01-13 12:03:00,67.9,58.5,30.16,SW,225,12.5,18.4,72,0.00,OVC,,0.00,250.0,WeatherDisplay:10.37,2013-01-13 17:03:00,
2013-01-13 12:04:00,68.1,59.1,30.16,SW,233,12.6,16.1,73,0.00,OVC,,0.00,250.0,WeatherDisplay:10.37,2013-01-13 17:04:00,
2013-01-13 12:06:00,68.3,59.3,30.16,SSW,211,13.6,16.1,73,0.00,OVC,,0.00,250.0,WeatherDisplay:10.37,2013-01-13 17:06:00,
2013-01-13 12:07:00,68.6,59.6,30.16,SW,218,12.6,15.0,73,0.00,OVC,,0.00,374.0,WeatherDisplay:10.37,2013-01-13 17:07:00,
2013-01-13 12:09:00,68.6,58.8,30.16,SW,235,18.6,20.7,71,0.00,OVC,,0.00,287.0,WeatherDisplay:10.37,2013-01-13 17:09:00,
2013-01-13 12:10:00,68.6,58.8,30.16,SSW,209,19.0,23.0,71,0.00,OVC,,0.00,287.0,WeatherDisplay:10.37,2013-01-13 17:10:00,
2013-01-13 12:11:00,68.6,58.8,30.16,SSW,209,22.4,25.3,71,0.00,OVC,,0.00,288.0,WeatherDisplay:10.37,2013-01-13 17:11:00,
2013-01-13 12:13:00,68.8,59.4,30.16,SW,220,19.8,25.0,72,0.00,OVC,,0.00,209.0,WeatherDisplay:10.37,2013-01-13 17:13:00,
2013-01-13 12:15:00,68.8,59.4,30.16,SW,220,23.0,27.0,72,0.00,OVC,OVC,0.00,218.0,WeatherDisplay:10.37,2013-01-13 17:15:00,
2013-01-13 12:16:00,68.8,59.4,30.16,SSW,213,19.6,26.5,72,0.00,OVC,,0.00,330.0,WeatherDisplay:10.37,2013-01-13 17:16:00,
2013-01-13 12:17:00,68.8,59.4,30.16,SW,220,23.2,26.5,72,0.00,OVC,,0.00,394.0,WeatherDisplay:10.37,2013-01-13 17:17:00,
2013-01-13 12:18:00,68.9,59.5,30.15,SSW,211,21.1,25.3,72,0.00,OVC,,0.00,329.0,WeatherDisplay:10.37,2013-01-13 17:18:00,
2013-01-13 12:21:00,69.1,59.3,30.15,SSW,202,19.6,24.2,71,0.00,OVC,,0.00,255.0,WeatherDisplay:10.37,2013-01-13 17:21:00,
2013-01-13 12:22:00,69.1,59.3,30.15,SW,215,18.8,23.0,71,0.00,OVC,,0.00,255.0,WeatherDisplay:10.37,2013-01-13 17:22:00,
2013-01-13 12:23:00,69.1,58.9,30.15,SW,226,21.1,26.5,70,0.00,OVC,,0.00,229.0,WeatherDisplay:10.37,2013-01-13 17:23:00,
2013-01-13 12:25:00,69.1,58.9,30.15,SW,221,21.8,28.8,70,0.00,OVC,,0.00,171.0,WeatherDisplay:10.37,2013-01-13 17:25:00,
2013-01-13 12:26:00,69.1,59.7,30.15,SW,219,17.3,25.3,72,0.00,OVC,,0.00,171.0,WeatherDisplay:10.37,2013-01-13 17:26:00,
2013-01-13 12:27:00,69.1,59.3,30.15,SW,218,17.1,19.6,71,0.00,OVC,,0.00,199.0,WeatherDisplay:10.37,2013-01-13 17:27:00,
2013-01-13 12:29:00,69.1,59.3,30.15,West,262,15.2,24.2,71,0.00,OVC,,0.00,209.0,WeatherDisplay:10.37,2013-01-13 17:29:00,
2013-01-13 12:32:00,69.1,59.3,30.15,WSW,241,15.4,19.6,71,0.00,CLR,OVC,0.00,156.0,WeatherDisplay:10.37,2013-01-13 17:32:00,
2013-01-13 12:33:00,69.3,59.5,30.15,SW,227,15.7,19.6,71,0.00,CLR,OVC,0.00,165.0,WeatherDisplay:10.37,2013-01-13 17:33:00,
2013-01-13 12:35:00,69.1,58.9,30.15,SW,224,13.9,19.6,70,0.00,CLR,OVC,0.00,153.0,WeatherDisplay:10.37,2013-01-13 17:35:00,
2013-01-13 12:38:00,69.3,59.1,30.15,SW,236,16.6,21.9,70,0.00,CLR,OVC,0.00,183.0,WeatherDisplay:10.37,2013-01-13 17:38:00,
2013-01-13 12:39:00,69.1,59.3,30.15,WSW,247,15.6,19.6,71,0.00,CLR,OVC,0.00,190.0,WeatherDisplay:10.37,2013-01-13 17:39:00,
2013-01-13 12:40:00,69.1,59.3,30.15,WSW,240,15.2,19.6,71,0.00,CLR,OVC,0.00,218.0,WeatherDisplay:10.37,2013-01-13 17:40:00,
2013-01-13 12:41:00,69.1,59.3,30.15,SW,233,13.5,18.4,71,0.00,CLR,OVC,0.00,229.0,WeatherDisplay:10.37,2013-01-13 17:41:00,
2013-01-13 12:43:00,69.3,59.5,30.15,SW,232,12.9,17.0,71,0.00,CLR,OVC,0.00,264.0,WeatherDisplay:10.37,2013-01-13 17:43:00,
2013-01-13 12:45:00,69.3,59.5,30.15,WSW,239,13.0,22.0,71,0.00,CLR,OVC,0.00,264.0,WeatherDisplay:10.37,2013-01-13 17:45:00,
2013-01-13 12:48:00,69.4,59.2,30.15,SW,221,18.3,21.9,70,0.00,CLR,OVC,0.00,345.0,WeatherDisplay:10.37,2013-01-13 17:48:00,
2013-01-13 12:49:00,69.4,59.2,30.15,SW,234,18.6,24.2,70,0.00,CLR,OVC,0.00,209.0,WeatherDisplay:10.37,2013-01-13 17:49:00,
2013-01-13 12:50:00,69.4,59.6,30.15,SW,234,17.2,19.6,71,0.00,CLR,OVC,0.00,267.0,WeatherDisplay:10.37,2013-01-13 17:50:00,
2013-01-13 12:52:00,69.6,59.4,30.15,SW,236,14.9,18.4,70,0.00,CLR,OVC,0.00,229.0,WeatherDisplay:10.37,2013-01-13 17:52:00,
2013-01-13 12:53:00,69.6,59.8,30.15,WSW,246,13.1,17.3,71,0.00,CLR,OVC,0.00,243.0,WeatherDisplay:10.37,2013-01-13 17:53:00,
2013-01-13 12:54:00,69.8,60.0,30.15,SW,235,12.5,15.0,71,0.00,CLR,OVC,0.00,262.0,WeatherDisplay:10.37,2013-01-13 17:54:00,
2013-01-13 12:57:00,69.6,59.4,30.15,SW,217,14.1,18.4,70,0.00,CLR,OVC,0.00,146.0,WeatherDisplay:10.37,2013-01-13 17:57:00,
2013-01-13 12:59:00,69.4,59.2,30.15,SW,227,14.4,19.6,70,0.00,CLR,OVC,0.00,167.0,WeatherDisplay:10.37,2013-01-13 17:59:00,
2013-01-13 13:00:00,69.3,59.1,30.15,SW,235,14.9,17.3,70,0.00,CLR,OVC,0.00,167.0,WeatherDisplay:10.37,2013-01-13 18:00:00,
2013-01-13 13:02:00,69.3,59.5,30.15,SW,219,13.4,15.0,71,0.00,CLR,OVC,0.00,427.0,WeatherDisplay:10.37,2013-01-13 18:02:00,
2013-01-13 13:04:00,69.3,59.1,30.14,SW,228,13.5,17.3,70,0.00,CLR,OVC,0.00,137.0,WeatherDisplay:10.37,2013-01-13 18:04:00,
2013-01-13 13:06:00,69.3,59.1,30.14,WSW,250,18.6,23.0,70,0.00,CLR,OVC,0.00,172.0,WeatherDisplay:10.37,2013-01-13 18:06:00,
2013-01-13 13:08:00,69.3,59.5,30.14,WSW,247,13.9,15.0,71,0.00,CLR,OVC,0.00,204.0,WeatherDisplay:10.37,2013-01-13 18:08:00,
2013-01-13 13:09:00,69.4,59.2,30.14,WSW,243,15.7,16.1,70,0.00,CLR,OVC,0.00,227.0,WeatherDisplay:10.37,2013-01-13 18:09:00,
2013-01-13 13:10:00,69.4,59.2,30.14,SW,232,16.8,19.6,70,0.00,CLR,OVC,0.00,229.0,WeatherDisplay:10.37,2013-01-13 18:10:00,
2013-01-13 13:12:00,69.4,59.6,30.14,SW,236,12.8,17.3,71,0.00,CLR,OVC,0.00,357.0,WeatherDisplay:10.37,2013-01-13 18:12:00,
2013-01-13 13:14:00,69.8,59.2,30.14,WSW,244,12.3,18.4,69,0.00,CLR,OVC,0.00,193.0,WeatherDisplay:10.37,2013-01-13 18:14:00,
2013-01-13 13:15:00,69.8,59.2,30.14,SW,232,13.5,15.0,69,0.00,CLR,OVC,0.00,234.0,WeatherDisplay:10.37,2013-01-13 18:15:00,
2013-01-13 13:16:00,69.9,59.3,30.14,WSW,243,13.5,16.1,69,0.00,CLR,OVC,0.00,218.0,WeatherDisplay:10.37,2013-01-13 18:16:00,
2013-01-13 13:18:00,69.9,59.3,30.14,SSW,212,16.9,19.6,69,0.00,CLR,OVC,0.00,294.0,WeatherDisplay:10.37,2013-01-13 18:18:00,
2013-01-13 13:21:00,69.9,59.3,30.14,SW,232,13.3,18.4,69,0.00,CLR,OVC,0.00,207.0,WeatherDisplay:10.37,2013-01-13 18:21:00,
2013-01-13 13:22:00,69.9,59.3,30.14,SW,227,11.3,16.1,69,0.00,CLR,OVC,0.00,207.0,WeatherDisplay:10.37,2013-01-13 18:22:00,
2013-01-13 13:23:00,69.9,59.3,30.14,SW,232,10.9,13.8,69,0.00,CLR,OVC,0.00,364.0,WeatherDisplay:10.37,2013-01-13 18:23:00,
2013-01-13 13:24:00,69.9,59.3,30.14,SW,233,10.7,15.0,69,0.00,CLR,OVC,0.00,388.0,WeatherDisplay:10.37,2013-01-13 18:24:00,
2013-01-13 13:26:00,70.4,59.7,30.14,SW,227,14.9,19.0,69,0.00,CLR,OVC,0.00,330.0,WeatherDisplay:10.37,2013-01-13 18:26:00,
2013-01-13 13:27:00,70.4,59.3,30.14,SW,221,14.2,19.6,68,0.00,CLR,OVC,0.00,362.0,WeatherDisplay:10.37,2013-01-13 18:27:00,
2013-01-13 13:28:00,70.4,59.3,30.14,SW,232,11.7,17.3,68,0.00,CLR,OVC,0.00,362.0,WeatherDisplay:10.37,2013-01-13 18:28:00,
2013-01-13 13:31:00,70.6,59.5,30.14,SSW,210,19.2,24.2,68,0.00,CLR,OVC,0.00,236.0,WeatherDisplay:10.37,2013-01-13 18:31:00,
2013-01-13 13:32:00,70.6,59.1,30.14,SW,215,19.0,24.2,67,0.00,CLR,OVC,0.00,455.0,WeatherDisplay:10.37,2013-01-13 18:32:00,
2013-01-13 13:33:00,70.8,59.3,30.13,SW,220,13.2,16.1,67,0.00,CLR,OVC,0.00,515.0,WeatherDisplay:10.37,2013-01-13 18:33:00,
2013-01-13 13:37:00,70.8,58.9,30.13,SW,217,19.6,27.6,66,0.00,CLR,OVC,0.00,181.0,WeatherDisplay:10.37,2013-01-13 18:37:00,
2013-01-13 13:38:00,70.9,58.5,30.13,SW,223,22.7,24.0,65,0.00,CLR,OVC,0.00,408.0,WeatherDisplay:10.37,2013-01-13 18:38:00,
2013-01-13 13:42:00,70.6,58.3,30.13,SSW,211,15.8,26.5,65,0.00,CLR,OVC,0.00,468.0,WeatherDisplay:10.37,2013-01-13 18:42:00,
2013-01-13 13:43:00,70.8,58.9,30.13,SW,227,13.8,18.4,66,0.00,CLR,OVC,0.00,466.0,WeatherDisplay:10.37,2013-01-13 18:43:00,
2013-01-13 13:44:00,70.8,58.4,30.13,WSW,238,16.9,22.0,65,0.00,CLR,OVC,0.00,445.0,WeatherDisplay:10.37,2013-01-13 18:44:00,
2013-01-13 13:47:00,70.8,58.4,30.12,SSW,210,17.8,23.0,65,0.00,CLR,OVC,0.00,366.0,WeatherDisplay:10.37,2013-01-13 18:47:00,
2013-01-13 13:49:00,70.8,58.4,30.12,SSW,205,16.3,21.9,65,0.00,CLR,OVC,0.00,348.0,WeatherDisplay:10.37,2013-01-13 18:49:00,
2013-01-13 13:50:00,70.8,58.9,30.12,SSW,209,16.6,19.6,66,0.00,CLR,OVC,0.00,348.0,WeatherDisplay:10.37,2013-01-13 18:50:00,
2013-01-13 13:53:00,71.1,58.7,30.12,SW,226,14.5,20.7,65,0.00,CLR,OVC,0.00,341.0,WeatherDisplay:10.37,2013-01-13 18:53:00,
2013-01-13 13:54:00,71.1,58.7,30.12,SSW,210,12.0,19.6,65,0.00,CLR,OVC,0.00,338.0,WeatherDisplay:10.37,2013-01-13 18:54:00,
2013-01-13 13:55:00,71.1,58.7,30.12,SW,215,11.2,13.0,65,0.00,CLR,OVC,0.00,330.0,WeatherDisplay:10.37,2013-01-13 18:55:00,
2013-01-13 13:56:00,71.3,59.4,30.12,SW,215,11.9,13.0,66,0.00,CLR,OVC,0.00,325.0,WeatherDisplay:10.37,2013-01-13 18:56:00,
2013-01-13 13:59:00,71.1,58.7,30.12,SW,227,14.8,23.0,65,0.00,CLR,OVC,0.00,234.0,WeatherDisplay:10.37,2013-01-13 18:59:00,
2013-01-13 14:00:00,71.1,58.7,30.12,SW,227,12.4,15.0,65,0.00,CLR,OVC,0.00,276.0,WeatherDisplay:10.37,2013-01-13 19:00:00,
2013-01-13 14:01:00,71.1,58.7,30.12,SSW,211,15.8,21.0,65,0.00,CLR,OVC,0.00,214.0,WeatherDisplay:10.37,2013-01-13 19:01:00,
2013-01-13 14:03:00,70.9,58.5,30.12,SSW,207,13.1,17.3,65,0.00,CLR,OVC,0.00,220.0,WeatherDisplay:10.37,2013-01-13 19:03:00,
2013-01-13 14:05:00,70.9,58.5,30.12,SSW,198,11.8,16.1,65,0.00,CLR,OVC,0.00,250.0,WeatherDisplay:10.37,2013-01-13 19:05:00,
2013-01-13 14:06:00,70.9,58.5,30.12,SSW,195,16.8,22.0,65,0.00,CLR,OVC,0.00,172.0,WeatherDisplay:10.37,2013-01-13 19:06:00,
2013-01-13 14:12:00,71.6,59.2,30.12,SSW,210,15.2,19.6,65,0.00,CLR,OVC,0.00,543.0,WeatherDisplay:10.37,2013-01-13 19:12:00,
2013-01-13 14:13:00,71.6,58.8,30.12,SW,217,17.0,21.9,64,0.00,CLR,OVC,0.00,448.0,WeatherDisplay:10.37,2013-01-13 19:13:00,
2013-01-13 14:15:00,71.5,58.2,30.12,SW,227,17.1,19.6,63,0.00,FEW,OVC,0.00,169.0,WeatherDisplay:10.37,2013-01-13 19:15:00,
2013-01-13 14:17:00,71.5,59.1,30.12,SW,221,10.9,17.3,65,0.00,CLR,OVC,0.00,206.0,WeatherDisplay:10.37,2013-01-13 19:17:00,
2013-01-13 14:18:00,71.5,58.7,30.13,SSW,209,11.7,13.8,64,0.00,SCT,OVC,0.00,181.0,WeatherDisplay:10.37,2013-01-13 19:18:00,
2013-01-13 14:19:00,71.3,58.9,30.13,SW,215,11.2,16.1,65,0.00,SCT,OVC,0.00,163.0,WeatherDisplay:10.37,2013-01-13 19:19:00,
2013-01-13 14:22:00,71.3,58.9,30.13,WSW,254,7.4,16.1,65,0.00,FEW,OVC,0.00,172.0,WeatherDisplay:10.37,2013-01-13 19:22:00,
2013-01-13 14:23:00,71.3,58.9,30.13,SW,227,9.7,11.5,65,0.00,SCT,OVC,0.00,169.0,WeatherDisplay:10.37,2013-01-13 19:23:00,
2013-01-13 14:24:00,71.3,58.9,30.13,SW,217,10.0,11.5,65,0.00,SCT,OVC,0.00,262.0,WeatherDisplay:10.37,2013-01-13 19:24:00,
2013-01-13 14:26:00,71.3,58.9,30.13,SW,227,11.0,13.8,65,0.00,CLR,OVC,0.00,262.0,WeatherDisplay:10.37,2013-01-13 19:26:00,
2013-01-13 14:29:00,71.6,59.2,30.13,SSW,192,11.2,16.1,65,0.00,CLR,OVC,0.00,292.0,WeatherDisplay:10.37,2013-01-13 19:29:00,
2013-01-13 14:30:00,71.6,59.2,30.13,SW,226,12.0,20.0,65,0.00,CLR,OVC,0.00,315.0,WeatherDisplay:10.37,2013-01-13 19:30:00,
2013-01-13 14:31:00,71.6,58.3,30.13,SW,223,21.3,22.0,63,0.00,CLR,OVC,0.00,397.0,WeatherDisplay:10.37,2013-01-13 19:31:00,
2013-01-13 14:34:00,71.5,58.7,30.13,SSW,207,20.8,29.9,64,0.00,CLR,OVC,0.00,445.0,WeatherDisplay:10.37,2013-01-13 19:34:00,
2013-01-13 14:36:00,71.6,58.8,30.13,SW,217,17.8,19.6,64,0.00,CLR,OVC,0.00,299.0,WeatherDisplay:10.37,2013-01-13 19:36:00,
2013-01-13 14:38:00,71.3,58.5,30.13,SSW,211,19.8,25.3,64,0.00,FEW,OVC,0.00,162.0,WeatherDisplay:10.37,2013-01-13 19:38:00,
2013-01-13 14:39:00,71.3,58.5,30.13,SW,227,18.5,25.3,64,0.00,SCT,OVC,0.00,148.0,WeatherDisplay:10.37,2013-01-13 19:39:00,
2013-01-13 14:40:00,71.1,58.3,30.13,SW,218,18.4,23.0,64,0.00,BKN,OVC,0.00,137.0,WeatherDisplay:10.37,2013-01-13 19:40:00,
2013-01-13 14:42:00,70.9,58.1,30.13,SSW,201,14.7,24.2,64,0.00,BKN,OVC,0.00,132.0,WeatherDisplay:10.37,2013-01-13 19:42:00,
2013-01-13 14:43:00,70.8,58.0,30.13,SW,226,16.2,27.6,64,0.00,BKN,OVC,0.00,149.0,WeatherDisplay:10.37,2013-01-13 19:43:00,
2013-01-13 14:45:00,70.8,58.4,30.13,SW,216,16.4,21.9,65,0.00,FEW,OVC,0.00,246.0,WeatherDisplay:10.37,2013-01-13 19:45:00,
2013-01-13 14:47:00,70.9,58.1,30.13,SW,229,16.5,20.7,64,0.00,CLR,OVC,0.00,429.0,WeatherDisplay:10.37,2013-01-13 19:47:00,
2013-01-13 14:48:00,71.1,57.9,30.13,SW,223,18.6,21.0,63,0.00,CLR,OVC,0.00,297.0,WeatherDisplay:10.37,2013-01-13 19:48:00,
2013-01-13 14:51:00,71.5,57.8,30.13,SW,229,18.6,25.0,62,0.00,CLR,OVC,0.00,287.0,WeatherDisplay:10.37,2013-01-13 19:51:00,
2013-01-13 14:53:00,71.3,57.6,30.13,SW,225,20.0,25.3,62,0.00,SCT,OVC,0.00,227.0,WeatherDisplay:10.37,2013-01-13 19:53:00,
2013-01-13 14:55:00,71.3,58.1,30.13,SW,229,15.2,21.9,63,0.00,CLR,OVC,0.00,297.0,WeatherDisplay:10.37,2013-01-13 19:55:00,
2013-01-13 14:58:00,71.5,58.2,30.13,SW,217,24.1,27.6,63,0.00,CLR,OVC,0.00,318.0,WeatherDisplay:10.37,2013-01-13 19:58:00,
2013-01-13 15:00:00,71.5,58.2,30.13,SW,222,21.0,29.0,63,0.00,SCT,OVC,0.00,234.0,WeatherDisplay:10.37,2013-01-13 20:00:00,
2013-01-13 15:03:00,71.3,58.1,30.13,SSW,203,17.7,25.0,63,0.00,SCT,OVC,0.00,127.0,WeatherDisplay:10.37,2013-01-13 20:03:00,
2013-01-13 15:05:00,71.1,57.9,30.13,SW,229,20.3,23.0,63,0.00,BKN,OVC,0.00,127.0,WeatherDisplay:10.37,2013-01-13 20:05:00,
2013-01-13 15:08:00,70.8,58.0,30.13,SW,221,18.5,24.2,64,0.00,BKN,OVC,0.00,202.0,WeatherDisplay:10.37,2013-01-13 20:08:00,
2013-01-13 15:10:00,70.8,57.6,30.13,SW,232,18.7,25.3,63,0.00,SCT,OVC,0.00,244.0,WeatherDisplay:10.37,2013-01-13 20:10:00,
2013-01-13 15:12:00,70.6,57.8,30.13,SW,229,18.4,23.0,64,0.00,BKN,OVC,0.00,135.0,WeatherDisplay:10.37,2013-01-13 20:12:00,
2013-01-13 15:14:00,70.6,57.8,30.13,SW,220,12.5,18.4,64,0.00,BKN,OVC,0.00,135.0,WeatherDisplay:10.37,2013-01-13 20:14:00,
2013-01-13 15:16:00,70.6,57.8,30.13,SW,234,13.6,17.3,64,0.00,BKN,OVC,0.00,130.0,WeatherDisplay:10.37,2013-01-13 20:16:00,
2013-01-13 15:17:00,70.6,58.3,30.13,SW,227,10.5,13.0,65,0.00,BKN,OVC,0.00,128.0,WeatherDisplay:10.37,2013-01-13 20:17:00,
2013-01-13 15:22:00,70.6,57.8,30.13,SW,217,21.3,24.2,64,0.00,BKN,OVC,0.00,132.0,WeatherDisplay:10.37,2013-01-13 20:22:00,
2013-01-13 15:23:00,70.6,57.8,30.13,WSW,243,22.0,27.0,64,0.00,BKN,OVC,0.00,132.0,WeatherDisplay:10.37,2013-01-13 20:23:00,
2013-01-13 15:25:00,70.4,57.6,30.13,SW,221,15.5,25.3,64,0.00,BKN,OVC,0.00,139.0,WeatherDisplay:10.37,2013-01-13 20:25:00,
2013-01-13 15:28:00,70.4,57.6,30.13,SW,233,13.4,19.6,64,0.00,BKN,OVC,0.00,171.0,WeatherDisplay:10.37,2013-01-13 20:28:00,
2013-01-13 15:29:00,70.4,58.1,30.13,SW,236,15.7,18.0,65,0.00,BKN,OVC,0.00,183.0,WeatherDisplay:10.37,2013-01-13 20:29:00,
2013-01-13 15:30:00,70.4,57.6,30.13,SW,228,15.0,27.0,64,0.00,SCT,OVC,0.00,211.0,WeatherDisplay:10.37,2013-01-13 20:30:00,
2013-01-13 15:35:00,70.8,58.0,30.14,SW,222,13.9,17.3,64,0.00,FEW,OVC,0.00,309.0,WeatherDisplay:10.37,2013-01-13 20:35:00,
2013-01-13 15:36:00,70.8,58.0,30.14,SW,227,9.2,12.7,64,0.00,SCT,OVC,0.00,246.0,WeatherDisplay:10.37,2013-01-13 20:36:00,
2013-01-13 15:40:00,70.9,58.1,30.14,SW,230,11.3,12.7,64,0.00,BKN,OVC,0.00,146.0,WeatherDisplay:10.37,2013-01-13 20:40:00,
2013-01-13 15:41:00,70.9,58.1,30.14,SW,227,9.1,11.5,64,0.00,BKN,OVC,0.00,204.0,WeatherDisplay:10.37,2013-01-13 20:41:00,
2013-01-13 15:45:00,71.1,58.3,30.14,SW,222,9.0,20.0,64,0.00,BKN,OVC,0.00,195.0,WeatherDisplay:10.37,2013-01-13 20:45:00,
2013-01-13 15:49:00,70.9,57.7,30.13,SSW,209,15.1,19.6,63,0.00,BKN,OVC,0.00,149.0,WeatherDisplay:10.37,2013-01-13 20:49:00,
2013-01-13 15:50:00,70.9,57.7,30.13,SW,227,13.1,19.6,63,0.00,BKN,OVC,0.00,156.0,WeatherDisplay:10.37,2013-01-13 20:50:00,
2013-01-13 15:53:00,70.9,57.7,30.13,SSW,202,16.9,20.0,63,0.00,BKN,OVC,0.00,179.0,WeatherDisplay:10.37,2013-01-13 20:53:00,
2013-01-13 15:55:00,70.9,57.7,30.13,SW,230,12.6,20.7,63,0.00,BKN,OVC,0.00,128.0,WeatherDisplay:10.37,2013-01-13 20:55:00,
2013-01-13 15:56:00,70.9,57.7,30.13,SSW,204,14.0,18.4,63,0.00,BKN,OVC,0.00,132.0,WeatherDisplay:10.37,2013-01-13 20:56:00,
2013-01-13 16:00:00,71.1,57.9,30.13,SW,214,12.4,16.0,63,0.00,SCT,OVC,0.00,229.0,WeatherDisplay:10.37,2013-01-13 21:00:00,
2013-01-13 16:01:00,71.1,57.4,30.13,SSW,213,13.3,16.1,62,0.00,SCT,OVC,0.00,232.0,WeatherDisplay:10.37,2013-01-13 21:01:00,
2013-01-13 16:04:00,71.3,57.6,30.14,SW,233,12.1,15.0,62,0.00,BKN,OVC,0.00,155.0,WeatherDisplay:10.37,2013-01-13 21:04:00,
2013-01-13 16:05:00,71.3,57.6,30.14,SW,228,11.0,15.0,62,0.00,BKN,OVC,0.00,149.0,WeatherDisplay:10.37,2013-01-13 21:05:00,
2013-01-13 16:06:00,71.3,57.6,30.14,SSW,205,13.5,16.1,62,0.00,BKN,OVC,0.00,163.0,WeatherDisplay:10.37,2013-01-13 21:06:00,
2013-01-13 16:09:00,71.3,57.6,30.14,SW,227,11.0,15.0,62,0.00,BKN,OVC,0.00,95.0,WeatherDisplay:10.37,2013-01-13 21:09:00,
2013-01-13 16:10:00,71.3,57.6,30.14,WSW,246,10.3,15.0,62,0.00,BKN,OVC,0.00,91.0,WeatherDisplay:10.37,2013-01-13 21:10:00,
2013-01-13 16:11:00,71.1,57.4,30.14,SW,232,12.5,13.8,62,0.00,BKN,OVC,0.00,88.0,WeatherDisplay:10.37,2013-01-13 21:11:00,
2013-01-13 16:15:00,70.9,57.7,30.14,SW,221,7.6,11.5,63,0.00,BKN,OVC,0.00,183.0,WeatherDisplay:10.37,2013-01-13 21:15:00,
2013-01-13 16:16:00,70.9,57.7,30.14,SW,223,8.4,11.5,63,0.00,BKN,OVC,0.00,137.0,WeatherDisplay:10.37,2013-01-13 21:16:00,
2013-01-13 16:17:00,71.1,57.9,30.14,SW,217,9.9,12.7,63,0.00,BKN,OVC,0.00,179.0,WeatherDisplay:10.37,2013-01-13 21:17:00,
2013-01-13 16:21:00,71.3,57.6,30.14,SSW,203,9.2,11.5,62,0.00,BKN,OVC,0.00,185.0,WeatherDisplay:10.37,2013-01-13 21:21:00,
2013-01-13 16:23:00,71.3,57.6,30.14,SSW,204,8.6,11.5,62,0.00,BKN,OVC,0.00,134.0,WeatherDisplay:10.37,2013-01-13 21:23:00,
2013-01-13 16:27:00,71.1,57.4,30.14,SSW,207,10.6,11.5,62,0.00,BKN,OVC,0.00,74.0,WeatherDisplay:10.37,2013-01-13 21:27:00,
2013-01-13 16:28:00,71.1,57.9,30.14,SW,215,11.8,14.0,63,0.00,BKN,OVC,0.00,69.0,WeatherDisplay:10.37,2013-01-13 21:28:00,
2013-01-13 16:31:00,70.9,57.7,30.14,SW,220,8.9,10.4,63,0.00,BKN,OVC,0.00,63.0,WeatherDisplay:10.37,2013-01-13 21:31:00,
2013-01-13 16:32:00,70.9,57.7,30.14,SW,218,10.8,12.0,63,0.00,BKN,OVC,0.00,53.0,WeatherDisplay:10.37,2013-01-13 21:32:00,
2013-01-13 16:33:00,70.8,57.6,30.14,SW,222,10.9,12.7,63,0.00,BKN,OVC,0.00,53.0,WeatherDisplay:10.37,2013-01-13 21:33:00,
2013-01-13 16:36:00,70.8,57.6,30.14,SSW,211,7.1,11.5,63,0.00,BKN,OVC,0.00,40.0,WeatherDisplay:10.37,2013-01-13 21:36:00,
2013-01-13 16:37:00,70.8,57.6,30.14,SW,219,6.7,9.2,63,0.00,BKN,OVC,0.00,44.0,WeatherDisplay:10.37,2013-01-13 21:37:00,
2013-01-13 16:38:00,70.6,57.4,30.14,SW,219,5.0,9.2,63,0.00,BKN,OVC,0.00,51.0,WeatherDisplay:10.37,2013-01-13 21:38:00,
2013-01-13 16:41:00,70.6,57.8,30.14,SSW,199,9.6,13.0,64,0.00,BKN,OVC,0.00,33.0,WeatherDisplay:10.37,2013-01-13 21:41:00,
2013-01-13 16:42:00,70.4,57.6,30.14,SSW,206,7.7,13.8,64,0.00,BKN,OVC,0.00,32.0,WeatherDisplay:10.37,2013-01-13 21:42:00,
2013-01-13 16:43:00,70.4,57.6,30.14,SSW,207,8.5,13.8,64,0.00,BKN,OVC,0.00,33.0,WeatherDisplay:10.37,2013-01-13 21:43:00,
2013-01-13 16:47:00,70.4,57.6,30.14,SSW,211,14.1,16.1,64,0.00,BKN,OVC,0.00,39.0,WeatherDisplay:10.37,2013-01-13 21:47:00,
2013-01-13 16:48:00,70.4,57.6,30.14,SSW,200,10.5,18.4,64,0.00,BKN,OVC,0.00,39.0,WeatherDisplay:10.37,2013-01-13 21:48:00,
2013-01-13 16:50:00,70.4,57.6,30.14,SSW,196,10.8,12.7,64,0.00,BKN,OVC,0.00,40.0,WeatherDisplay:10.37,2013-01-13 21:50:00,
2013-01-13 16:51:00,70.3,57.5,30.14,SSW,196,5.8,10.4,64,0.00,BKN,OVC,0.00,40.0,WeatherDisplay:10.37,2013-01-13 21:51:00,
2013-01-13 16:53:00,70.3,57.5,30.14,SSW,199,8.2,11.5,64,0.00,BKN,OVC,0.00,39.0,WeatherDisplay:10.37,2013-01-13 21:53:00,
2013-01-13 16:55:00,70.3,57.5,30.14,SSW,208,15.5,17.0,64,0.00,BKN,OVC,0.00,35.0,WeatherDisplay:10.37,2013-01-13 21:55:00,
2013-01-13 16:58:00,70.3,57.5,30.14,SW,216,9.0,11.5,64,0.00,BKN,OVC,0.00,32.0,WeatherDisplay:10.37,2013-01-13 21:58:00,
2013-01-13 17:02:00,69.9,57.2,30.14,SSW,197,10.1,13.0,64,0.00,OVC,,0.00,25.0,WeatherDisplay:10.37,2013-01-13 22:02:00,
2013-01-13 17:03:00,69.9,57.2,30.14,SSW,204,11.0,15.0,64,0.00,OVC,,0.00,23.0,WeatherDisplay:10.37,2013-01-13 22:03:00,
2013-01-13 17:04:00,69.9,57.2,30.14,SSW,206,10.2,14.0,64,0.00,OVC,,0.00,23.0,WeatherDisplay:10.37,2013-01-13 22:04:00,
2013-01-13 17:07:00,70.1,57.4,30.14,SSW,207,9.5,10.4,64,0.00,OVC,,0.00,18.0,WeatherDisplay:10.37,2013-01-13 22:07:00,
2013-01-13 17:08:00,69.9,57.2,30.14,SSW,206,9.0,11.5,64,0.00,OVC,,0.00,14.0,WeatherDisplay:10.37,2013-01-13 22:08:00,
2013-01-13 17:10:00,69.9,57.6,30.14,SSW,206,6.5,6.9,65,0.00,OVC,,0.00,12.0,WeatherDisplay:10.37,2013-01-13 22:10:00,
2013-01-13 17:11:00,69.9,57.6,30.14,SSW,205,8.6,10.4,65,0.00,OVC,,0.00,11.0,WeatherDisplay:10.37,2013-01-13 22:11:00,
2013-01-13 17:12:00,69.9,57.6,30.14,SSW,206,7.5,11.5,65,0.00,OVC,,0.00,11.0,WeatherDisplay:10.37,2013-01-13 22:12:00,
2013-01-13 17:15:00,69.8,57.5,30.14,SSW,205,6.0,15.0,65,0.00,OVC,OVC,0.00,7.0,WeatherDisplay:10.37,2013-01-13 22:15:00,
2013-01-13 17:17:00,69.6,57.3,30.14,SSW,206,5.4,6.9,65,0.00,OVC,,0.00,5.0,WeatherDisplay:10.37,2013-01-13 22:17:00,
2013-01-13 17:19:00,69.6,57.3,30.14,SSW,205,5.1,7.0,65,0.00,OVC,,0.00,5.0,WeatherDisplay:10.37,2013-01-13 22:19:00,
2013-01-13 17:21:00,69.4,57.1,30.14,SSW,207,6.0,8.1,65,0.00,OVC,,0.00,0.0,WeatherDisplay:10.37,2013-01-13 22:21:00,
2013-01-13 17:24:00,69.3,57.5,30.14,SSW,209,5.4,6.9,66,0.00,OVC,,0.00,0.0,WeatherDisplay:10.37,2013-01-13 22:24:00,
2013-01-13 17:25:00,69.3,57.5,30.14,SSW,209,5.5,6.9,66,0.00,OVC,,0.00,0.0,WeatherDisplay:10.37,2013-01-13 22:25:00,
2013-01-13 17:27:00,69.3,57.5,30.14,SSW,209,6.2,8.1,66,0.00,OVC,,0.00,0.0,WeatherDisplay:10.37,2013-01-13 22:27:00,
2013-01-13 17:29:00,69.3,57.5,30.14,SSW,209,4.7,4.7,66,0.00,OVC,,0.00,0.0,WeatherDisplay:10.37,2013-01-13 22:29:00,
2013-01-13 17:30:00,69.1,57.3,30.14,SSW,209,4.4,5.0,66,0.00,OVC,,0.00,0.0,WeatherDisplay:10.37,2013-01-13 22:30:00,
2013-01-13 17:33:00,69.1,57.3,30.14,SSW,209,4.3,5.8,66,0.00,OVC,,0.00,0.0,WeatherDisplay:10.37,2013-01-13 22:33:00,
2013-01-13 17:34:00,68.9,57.1,30.14,SSW,209,3.3,3.5,66,0.00,OVC,,0.00,0.0,WeatherDisplay:10.37,2013-01-13 22:34:00,
2013-01-13 17:36:00,68.9,57.5,30.14,SSW,209,3.9,4.6,67,0.00,OVC,,0.00,0.0,WeatherDisplay:10.37,2013-01-13 22:36:00,
2013-01-13 17:38:00,68.8,57.4,30.14,SSW,209,3.1,4.0,67,0.00,OVC,,0.00,0.0,WeatherDisplay:10.37,2013-01-13 22:38:00,
2013-01-13 17:39:00,68.6,57.2,30.14,SSW,209,2.9,3.5,67,0.00,OVC,,0.00,0.0,WeatherDisplay:10.37,2013-01-13 22:39:00,
2013-01-13 17:42:00,68.4,57.4,30.14,SSW,209,3.7,4.0,68,0.00,OVC,,0.00,0.0,WeatherDisplay:10.37,2013-01-13 22:42:00,
2013-01-13 17:43:00,68.4,57.4,30.14,SSW,209,3.3,3.5,68,0.00,OVC,,0.00,0.0,WeatherDisplay:10.37,2013-01-13 22:43:00,
2013-01-13 17:44:00,68.4,57.4,30.14,SSW,209,3.4,4.0,68,0.00,OVC,,0.00,0.0,WeatherDisplay:10.37,2013-01-13 22:44:00,
2013-01-13 17:45:00,68.4,57.4,30.14,SSW,209,3.0,6.0,68,0.00,OVC,OVC,0.00,0.0,WeatherDisplay:10.37,2013-01-13 22:45:00,
2013-01-13 17:48:00,68.3,57.3,30.15,SSW,209,3.2,3.5,68,0.00,OVC,,0.00,0.0,WeatherDisplay:10.37,2013-01-13 22:48:00,
2013-01-13 17:49:00,68.3,57.3,30.15,SSW,209,2.8,3.5,68,0.00,OVC,,0.00,0.0,WeatherDisplay:10.37,2013-01-13 22:49:00,
2013-01-13 17:50:00,68.3,57.3,30.15,SSW,209,2.8,3.5,68,0.00,OVC,,0.00,0.0,WeatherDisplay:10.37,2013-01-13 22:50:00,
2013-01-13 17:51:00,68.1,57.5,30.15,SSW,209,3.3,4.0,69,0.00,OVC,,0.00,0.0,WeatherDisplay:10.37,2013-01-13 22:51:00,
2013-01-13 17:54:00,68.1,57.5,30.15,SSW,209,3.7,4.0,69,0.00,OVC,,0.00,0.0,WeatherDisplay:10.37,2013-01-13 22:54:00,
2013-01-13 17:55:00,67.9,57.4,30.15,SSW,209,4.0,4.0,69,0.00,OVC,,0.00,0.0,WeatherDisplay:10.37,2013-01-13 22:55:00,
2013-01-13 17:59:00,67.6,57.1,30.15,SSW,209,4.2,4.6,69,0.00,,OVC,0.00,0.0,WeatherDisplay:10.37,2013-01-13 22:59:00,
2013-01-13 18:01:00,67.6,57.5,30.15,SSW,209,4.1,4.6,70,0.00,,OVC,0.00,0.0,WeatherDisplay:10.37,2013-01-13 23:01:00,
2013-01-13 18:02:00,67.6,57.5,30.15,SSW,209,4.4,4.6,70,0.00,,OVC,0.00,0.0,WeatherDisplay:10.37,2013-01-13 23:02:00,
2013-01-13 18:04:00,67.6,57.5,30.15,SSW,209,4.5,4.6,70,0.00,,OVC,0.00,0.0,WeatherDisplay:10.37,2013-01-13 23:04:00,
2013-01-13 18:05:00,67.6,57.5,30.15,SSW,209,4.8,5.0,70,0.00,,OVC,0.00,0.0,WeatherDisplay:10.37,2013-01-13 23:05:00,
2013-01-13 18:06:00,67.6,57.5,30.15,SSW,209,4.1,5.0,70,0.00,,OVC,0.00,0.0,WeatherDisplay:10.37,2013-01-13 23:06:00,
2013-01-13 18:08:00,67.6,57.5,30.15,SSW,208,3.9,4.6,70,0.00,,OVC,0.00,0.0,WeatherDisplay:10.37,2013-01-13 23:08:00,
2013-01-13 18:10:00,67.6,57.5,30.15,SSW,209,3.3,3.5,70,0.00,,OVC,0.00,0.0,WeatherDisplay:10.37,2013-01-13 23:10:00,
2013-01-13 18:11:00,67.4,57.3,30.15,SSW,209,3.5,4.0,70,0.00,,OVC,0.00,0.0,WeatherDisplay:10.37,2013-01-13 23:11:00,
2013-01-13 18:12:00,67.4,57.3,30.15,SSW,209,3.3,3.5,70,0.00,,OVC,0.00,0.0,WeatherDisplay:10.37,2013-01-13 23:12:00,
2013-01-13 18:16:00,67.1,57.4,30.15,SSW,209,3.3,4.0,71,0.00,,OVC,0.00,0.0,WeatherDisplay:10.37,2013-01-13 23:16:00,
2013-01-13 18:17:00,66.9,57.2,30.15,SSW,209,3.6,4.0,71,0.00,,OVC,0.00,0.0,WeatherDisplay:10.37,2013-01-13 23:17:00,
2013-01-13 18:18:00,66.8,57.1,30.15,SSW,209,3.8,4.0,71,0.00,,OVC,0.00,0.0,WeatherDisplay:10.37,2013-01-13 23:18:00,
2013-01-13 18:22:00,66.4,57.1,30.15,SSW,209,2.8,3.5,72,0.00,,OVC,0.00,0.0,WeatherDisplay:10.37,2013-01-13 23:22:00,
2013-01-13 18:23:00,66.4,57.1,30.15,SSW,209,2.7,3.5,72,0.00,,OVC,0.00,0.0,WeatherDisplay:10.37,2013-01-13 23:23:00,
2013-01-13 18:27:00,66.4,57.1,30.15,SSW,209,3.0,3.5,72,0.00,,OVC,0.00,0.0,WeatherDisplay:10.37,2013-01-13 23:27:00,
2013-01-13 18:29:00,66.4,57.5,30.15,SSW,209,2.6,3.5,73,0.00,,OVC,0.00,0.0,WeatherDisplay:10.37,2013-01-13 23:29:00,
2013-01-13 18:30:00,66.4,57.1,30.15,SSW,209,2.5,3.5,72,0.00,,OVC,0.00,0.0,WeatherDisplay:10.37,2013-01-13 23:30:00,
2013-01-13 18:31:00,66.4,57.1,30.15,SSW,209,2.0,3.5,72,0.00,,OVC,0.00,0.0,WeatherDisplay:10.37,2013-01-13 23:31:00,
2013-01-13 18:32:00,66.4,57.5,30.15,SSW,209,0.1,3.5,73,0.00,,OVC,0.00,0.0,WeatherDisplay:10.37,2013-01-13 23:32:00,
2013-01-13 18:36:00,66.4,57.5,30.15,SSW,209,0.0,0.0,73,0.00,,OVC,0.00,0.0,WeatherDisplay:10.37,2013-01-13 23:36:00,
2013-01-13 18:37:00,66.4,57.1,30.15,SSW,209,1.8,3.0,72,0.00,,OVC,0.00,0.0,WeatherDisplay:10.37,2013-01-13 23:37:00,
2013-01-13 18:41:00,66.0,57.1,30.15,SSW,209,3.6,5.0,73,0.00,,OVC,0.00,0.0,WeatherDisplay:10.37,2013-01-13 23:41:00,
2013-01-13 18:42:00,65.8,56.9,30.15,SSW,209,3.9,4.6,73,0.00,,OVC,0.00,0.0,WeatherDisplay:10.37,2013-01-13 23:42:00,
2013-01-13 18:43:00,65.6,56.7,30.15,SSW,209,3.8,6.9,73,0.00,,OVC,0.00,0.0,WeatherDisplay:10.37,2013-01-13 23:43:00,
2013-01-13 18:45:00,65.5,57.0,30.15,SSW,209,3.7,6.0,74,0.00,,OVC,0.00,0.0,WeatherDisplay:10.37,2013-01-13 23:45:00,
2013-01-13 18:46:00,65.3,56.8,30.15,SSW,209,3.9,5.8,74,0.00,,OVC,0.00,0.0,WeatherDisplay:10.37,2013-01-13 23:46:00,
2013-01-13 18:49:00,65.0,56.9,30.15,SSW,209,4.0,5.8,75,0.00,,OVC,0.00,0.0,WeatherDisplay:10.37,2013-01-13 23:49:00,
2013-01-13 18:50:00,65.0,56.9,30.15,SSW,208,4.5,7.0,75,0.00,,OVC,0.00,0.0,WeatherDisplay:10.37,2013-01-13 23:50:00,
2013-01-13 18:52:00,65.0,56.9,30.15,SSW,208,4.4,5.8,75,0.00,,OVC,0.00,0.0,WeatherDisplay:10.37,2013-01-13 23:52:00,
2013-01-13 18:56:00,65.0,57.2,30.15,SSW,207,3.6,4.6,76,0.00,,OVC,0.00,0.0,WeatherDisplay:10.37,2013-01-13 23:56:00,
2013-01-13 18:57:00,65.0,57.2,30.15,SSW,207,3.8,4.0,76,0.00,,OVC,0.00,0.0,WeatherDisplay:10.37,2013-01-13 23:57:00,
2013-01-13 18:58:00,65.0,57.2,30.15,SSW,207,5.0,6.9,76,0.00,,OVC,0.00,0.0,WeatherDisplay:10.37,2013-01-13 23:58:00,
2013-01-13 18:59:00,65.2,57.4,30.15,SSW,206,6.0,8.1,76,0.00,,OVC,0.00,0.0,WeatherDisplay:10.37,2013-01-13 23:59:00,
2013-01-13 19:01:00,65.3,57.2,30.15,SSW,205,5.2,6.9,75,0.00,,OVC,0.00,0.0,WeatherDisplay:10.37,2013-01-14 00:01:00,
2013-01-13 19:03:00,65.3,57.5,30.15,SSW,205,4.8,7.0,76,0.00,,OVC,0.00,0.0,WeatherDisplay:10.37,2013-01-14 00:03:00,
2013-01-13 19:04:00,65.3,57.5,30.15,SSW,198,8.1,11.5,76,0.00,,OVC,0.00,0.0,WeatherDisplay:10.37,2013-01-14 00:04:00,
2013-01-13 19:07:00,65.3,57.5,30.15,SSW,196,6.5,10.0,76,0.00,,OVC,0.00,0.0,WeatherDisplay:10.37,2013-01-14 00:07:00,
2013-01-13 19:08:00,65.2,57.1,30.15,SSW,196,6.7,10.4,75,0.00,,OVC,0.00,0.0,WeatherDisplay:10.37,2013-01-14 00:08:00,
2013-01-13 19:12:00,65.0,57.2,30.15,South,188,7.9,12.7,76,0.00,,OVC,0.00,0.0,WeatherDisplay:10.37,2013-01-14 00:12:00,
2013-01-13 19:13:00,65.0,57.2,30.15,South,190,8.9,11.5,76,0.00,,OVC,0.00,0.0,WeatherDisplay:10.37,2013-01-14 00:13:00,
2013-01-13 19:14:00,65.0,57.2,30.15,South,190,9.2,10.4,76,0.00,,OVC,0.00,0.0,WeatherDisplay:10.37,2013-01-14 00:14:00,
2013-01-13 19:15:00,65.0,57.6,30.15,SSW,192,10.0,15.0,77,0.00,,OVC,0.00,0.0,WeatherDisplay:10.37,2013-01-14 00:15:00,
2013-01-13 19:18:00,65.2,57.8,30.14,South,186,11.0,12.7,77,0.00,,OVC,0.00,0.0,WeatherDisplay:10.37,2013-01-14 00:18:00,
2013-01-13 19:20:00,65.3,57.5,30.14,South,188,10.4,15.0,76,0.00,,OVC,0.00,0.0,WeatherDisplay:10.37,2013-01-14 00:20:00,
2013-01-13 19:21:00,65.3,57.5,30.14,South,187,10.1,11.5,76,0.00,,OVC,0.00,0.0,WeatherDisplay:10.37,2013-01-14 00:21:00,
2013-01-13 19:23:00,65.5,57.7,30.14,South,187,10.9,12.7,76,0.00,,OVC,0.00,0.0,WeatherDisplay:10.37,2013-01-14 00:23:00,
2013-01-13 19:25:00,65.5,57.7,30.14,South,190,10.0,11.5,76,0.00,,OVC,0.00,0.0,WeatherDisplay:10.37,2013-01-14 00:25:00,
2013-01-13 19:27:00,65.6,57.8,30.14,South,188,10.6,14.0,76,0.00,,OVC,0.00,0.0,WeatherDisplay:10.37,2013-01-14 00:27:00,
2013-01-13 19:28:00,65.6,57.8,30.14,South,186,11.2,13.8,76,0.00,,OVC,0.00,0.0,WeatherDisplay:10.37,2013-01-14 00:28:00,
2013-01-13 19:29:00,65.6,57.8,30.14,South,187,10.4,13.0,76,0.00,,OVC,0.00,0.0,WeatherDisplay:10.37,2013-01-14 00:29:00,
2013-01-13 19:31:00,65.8,58.0,30.14,South,186,10.8,13.8,76,0.00,,OVC,0.00,0.0,WeatherDisplay:10.37,2013-01-14 00:31:00,
2013-01-13 19:32:00,65.8,57.7,30.14,South,188,10.1,13.8,75,0.00,,OVC,0.00,0.0,WeatherDisplay:10.37,2013-01-14 00:32:00,
2013-01-13 19:34:00,65.8,58.0,30.14,South,187,8.8,12.0,76,0.00,,OVC,0.00,0.0,WeatherDisplay:10.37,2013-01-14 00:34:00,
2013-01-13 19:37:00,66.0,57.8,30.14,South,188,9.7,12.0,75,0.00,,OVC,0.00,0.0,WeatherDisplay:10.37,2013-01-14 00:37:00,
2013-01-13 19:38:00,66.0,57.8,30.14,South,190,7.8,11.5,75,0.00,,OVC,0.00,0.0,WeatherDisplay:10.37,2013-01-14 00:38:00,
2013-01-13 19:40:00,65.8,57.7,30.14,South,190,7.7,11.5,75,0.00,,OVC,0.00,0.0,WeatherDisplay:10.37,2013-01-14 00:40:00,
2013-01-13 19:41:00,65.8,57.7,30.14,South,189,9.4,11.5,75,0.00,,OVC,0.00,0.0,WeatherDisplay:10.37,2013-01-14 00:41:00,
2013-01-13 19:44:00,65.8,58.0,30.14,SSW,206,9.8,12.7,76,0.00,,OVC,0.00,0.0,WeatherDisplay:10.37,2013-01-14 00:44:00,
2013-01-13 19:45:00,66.0,58.2,30.14,South,190,11.5,15.0,76,0.00,,OVC,0.00,0.0,WeatherDisplay:10.37,2013-01-14 00:45:00,
2013-01-13 19:46:00,66.0,57.8,30.14,SSW,192,9.9,15.0,75,0.00,,OVC,0.00,0.0,WeatherDisplay:10.37,2013-01-14 00:46:00,
2013-01-13 19:49:00,66.0,58.2,30.14,South,191,10.7,11.5,76,0.00,,OVC,0.00,0.0,WeatherDisplay:10.37,2013-01-14 00:49:00,
2013-01-13 19:52:00,66.0,58.2,30.14,SSW,193,8.8,11.5,76,0.00,,OVC,0.00,0.0,WeatherDisplay:10.37,2013-01-14 00:52:00,
2013-01-13 19:55:00,66.0,58.2,30.14,SSW,194,9.9,12.7,76,0.00,,OVC,0.00,0.0,WeatherDisplay:10.37,2013-01-14 00:55:00,
2013-01-13 19:57:00,65.8,58.0,30.14,South,187,9.7,11.5,76,0.00,,OVC,0.00,0.0,WeatherDisplay:10.37,2013-01-14 00:57:00,
2013-01-13 20:00:00,65.8,58.0,30.14,South,190,11.7,16.1,76,0.00,,OVC,0.00,0.0,WeatherDisplay:10.37,2013-01-14 01:00:00,
2013-01-13 20:01:00,65.8,58.0,30.14,South,184,11.4,12.7,76,0.00,,OVC,0.00,0.0,WeatherDisplay:10.37,2013-01-14 01:01:00,
2013-01-13 20:02:00,66.0,58.2,30.14,South,185,11.1,16.1,76,0.00,,OVC,0.00,0.0,WeatherDisplay:10.37,2013-01-14 01:02:00,
2013-01-13 20:04:00,66.0,58.2,30.14,South,186,12.1,17.0,76,0.00,,OVC,0.00,0.0,WeatherDisplay:10.37,2013-01-14 01:04:00,
2013-01-13 20:05:00,66.0,58.2,30.14,South,188,13.7,17.3,76,0.00,,OVC,0.00,0.0,WeatherDisplay:10.37,2013-01-14 01:05:00,
2013-01-13 20:07:00,66.0,58.2,30.14,South,185,9.1,11.5,76,0.00,,OVC,0.00,0.0,WeatherDisplay:10.37,2013-01-14 01:07:00,
2013-01-13 20:10:00,65.8,58.0,30.14,South,188,11.9,15.0,76,0.00,,OVC,0.00,0.0,WeatherDisplay:10.37,2013-01-14 01:10:00,
2013-01-13 20:11:00,65.8,58.0,30.14,South,187,13.0,15.0,76,0.00,,OVC,0.00,0.0,WeatherDisplay:10.37,2013-01-14 01:11:00,
2013-01-13 20:12:00,65.8,58.0,30.14,South,186,9.7,18.4,76,0.00,,OVC,0.00,0.0,WeatherDisplay:10.37,2013-01-14 01:12:00,
2013-01-13 20:16:00,65.8,58.0,30.14,South,184,8.7,12.7,76,0.00,,OVC,0.00,0.0,WeatherDisplay:10.37,2013-01-14 01:16:00,
2013-01-13 20:17:00,65.8,58.0,30.14,South,184,9.2,12.7,76,0.00,,OVC,0.00,0.0,WeatherDisplay:10.37,2013-01-14 01:17:00,
2013-01-13 20:18:00,65.8,58.0,30.13,South,183,9.6,10.4,76,0.00,,OVC,0.00,0.0,WeatherDisplay:10.37,2013-01-14 01:18:00,
2013-01-13 20:20:00,65.6,57.8,30.13,South,180,9.2,12.7,76,0.00,,OVC,0.00,0.0,WeatherDisplay:10.37,2013-01-14 01:20:00,
2013-01-13 20:22:00,65.5,58.1,30.13,South,183,9.2,14.0,77,0.00,,OVC,0.00,0.0,WeatherDisplay:10.37,2013-01-14 01:22:00,
2013-01-13 20:23:00,65.5,58.1,30.13,South,187,10.9,13.8,77,0.00,,OVC,0.00,0.0,WeatherDisplay:10.37,2013-01-14 01:23:00,
2013-01-13 20:24:00,65.5,58.1,30.13,South,188,9.5,13.8,77,0.00,,OVC,0.00,0.0,WeatherDisplay:10.37,2013-01-14 01:24:00,
2013-01-13 20:28:00,65.3,57.9,30.13,South,181,10.1,13.8,77,0.00,,OVC,0.00,0.0,WeatherDisplay:10.37,2013-01-14 01:28:00,
2013-01-13 20:30:00,65.3,57.9,30.13,South,186,10.0,15.0,77,0.00,,OVC,0.00,0.0,WeatherDisplay:10.37,2013-01-14 01:30:00,
2013-01-13 20:32:00,65.3,57.9,30.13,South,186,7.8,11.5,77,0.00,,OVC,0.00,0.0,WeatherDisplay:10.37,2013-01-14 01:32:00,
2013-01-13 20:33:00,65.2,57.8,30.13,South,188,9.7,12.7,77,0.00,,OVC,0.00,0.0,WeatherDisplay:10.37,2013-01-14 01:33:00,
2013-01-13 20:34:00,65.2,57.8,30.13,South,190,11.6,14.0,77,0.00,,OVC,0.00,0.0,WeatherDisplay:10.37,2013-01-14 01:34:00,
2013-01-13 20:36:00,65.3,58.3,30.13,South,188,12.7,15.0,78,0.00,,OVC,0.00,0.0,WeatherDisplay:10.37,2013-01-14 01:36:00,
2013-01-13 20:37:00,65.3,58.3,30.13,SSW,195,12.6,17.3,78,0.00,,OVC,0.00,0.0,WeatherDisplay:10.37,2013-01-14 01:37:00,
2013-01-13 20:39:00,65.3,57.9,30.13,South,190,11.3,16.1,77,0.00,,OVC,0.00,0.0,WeatherDisplay:10.37,2013-01-14 01:39:00,
2013-01-13 20:40:00,65.3,57.9,30.13,SSW,198,10.1,15.0,77,0.00,,OVC,0.00,0.0,WeatherDisplay:10.37,2013-01-14 01:40:00,
2013-01-13 20:41:00,65.2,58.2,30.13,SSW,192,12.5,14.0,78,0.00,,OVC,0.00,0.0,WeatherDisplay:10.37,2013-01-14 01:41:00,
2013-01-13 20:45:00,65.2,58.2,30.13,SSW,197,9.7,12.7,78,0.00,,OVC,0.00,0.0,WeatherDisplay:10.37,2013-01-14 01:45:00,
2013-01-13 20:46:00,65.2,58.2,30.13,SSW,195,12.0,17.0,78,0.00,,OVC,0.00,0.0,WeatherDisplay:10.37,2013-01-14 01:46:00,
2013-01-13 20:48:00,65.5,58.5,30.13,SSW,196,13.7,17.3,78,0.00,,OVC,0.00,0.0,WeatherDisplay:10.37,2013-01-14 01:48:00,
2013-01-13 20:51:00,65.5,58.1,30.13,South,190,10.5,12.7,77,0.00,,OVC,0.00,0.0,WeatherDisplay:10.37,2013-01-14 01:51:00,
2013-01-13 20:52:00,65.5,58.1,30.13,South,191,11.1,12.7,77,0.00,,OVC,0.00,0.0,WeatherDisplay:10.37,2013-01-14 01:52:00,
2013-01-13 20:54:00,65.5,58.1,30.13,SSW,192,10.4,15.0,77,0.00,,OVC,0.00,0.0,WeatherDisplay:10.37,2013-01-14 01:54:00,
2013-01-13 20:56:00,65.5,58.1,30.13,SSW,194,10.1,16.1,77,0.00,,OVC,0.00,0.0,WeatherDisplay:10.37,2013-01-14 01:56:00,
2013-01-13 20:57:00,65.5,58.1,30.13,South,186,10.7,12.7,77,0.00,,OVC,0.00,0.0,WeatherDisplay:10.37,2013-01-14 01:57:00,
2013-01-13 20:59:00,65.5,58.5,30.13,South,187,10.2,15.0,78,0.00,,OVC,0.00,0.0,WeatherDisplay:10.37,2013-01-14 01:59:00,
2013-01-13 21:01:00,65.5,58.1,30.13,South,191,10.4,14.0,77,0.00,,OVC,0.00,0.0,WeatherDisplay:10.37,2013-01-14 02:01:00,
2013-01-13 21:02:00,65.5,58.5,30.13,South,191,10.4,15.0,78,0.00,,OVC,0.00,0.0,WeatherDisplay:10.37,2013-01-14 02:02:00,
2013-01-13 21:03:00,65.5,58.1,30.13,SSW,193,10.3,16.0,77,0.00,,OVC,0.00,0.0,WeatherDisplay:10.37,2013-01-14 02:03:00,
2013-01-13 21:06:00,65.5,58.5,30.13,South,184,10.7,14.0,78,0.00,,OVC,0.00,0.0,WeatherDisplay:10.37,2013-01-14 02:06:00,
2013-01-13 21:07:00,65.5,58.1,30.13,South,182,10.1,13.8,77,0.00,,OVC,0.00,0.0,WeatherDisplay:10.37,2013-01-14 02:07:00,
2013-01-13 21:09:00,65.3,58.3,30.13,South,190,9.9,11.5,78,0.00,,OVC,0.00,0.0,WeatherDisplay:10.37,2013-01-14 02:09:00,
2013-01-13 21:12:00,65.3,58.3,30.13,SSW,192,11.8,12.7,78,0.00,,OVC,0.00,0.0,WeatherDisplay:10.37,2013-01-14 02:12:00,
2013-01-13 21:13:00,65.5,58.5,30.13,South,188,10.9,12.7,78,0.00,,OVC,0.00,0.0,WeatherDisplay:10.37,2013-01-14 02:13:00,
2013-01-13 21:14:00,65.5,58.5,30.13,South,186,10.9,13.0,78,0.00,,OVC,0.00,0.0,WeatherDisplay:10.37,2013-01-14 02:14:00,
2013-01-13 21:15:00,65.5,58.5,30.13,South,189,12.0,16.0,78,0.00,,OVC,0.00,0.0,WeatherDisplay:10.37,2013-01-14 02:15:00,
2013-01-13 21:17:00,65.5,58.5,30.13,South,190,11.6,16.1,78,0.00,,OVC,0.00,0.0,WeatherDisplay:10.37,2013-01-14 02:17:00,
2013-01-13 21:19:00,65.3,58.3,30.13,South,185,11.0,11.5,78,0.00,,OVC,0.00,0.0,WeatherDisplay:10.37,2013-01-14 02:19:00,
2013-01-13 21:20:00,65.3,58.3,30.13,South,184,11.5,11.5,78,0.00,,OVC,0.00,0.0,WeatherDisplay:10.37,2013-01-14 02:20:00,
2013-01-13 21:22:00,65.3,58.3,30.13,SSW,192,11.2,14.0,78,0.00,,OVC,0.00,0.0,WeatherDisplay:10.37,2013-01-14 02:22:00,
2013-01-13 21:24:00,65.2,58.2,30.13,South,191,10.8,12.7,78,0.00,,OVC,0.00,0.0,WeatherDisplay:10.37,2013-01-14 02:24:00,
2013-01-13 21:25:00,65.2,58.2,30.13,South,187,10.7,13.0,78,0.00,,OVC,0.00,0.0,WeatherDisplay:10.37,2013-01-14 02:25:00,
2013-01-13 21:27:00,65.3,58.3,30.13,SSW,194,11.2,15.0,78,0.00,,OVC,0.00,0.0,WeatherDisplay:10.37,2013-01-14 02:27:00,
2013-01-13 21:30:00,65.2,58.2,30.13,SSW,193,10.0,12.0,78,0.00,,OVC,0.00,0.0,WeatherDisplay:10.37,2013-01-14 02:30:00,
2013-01-13 21:32:00,65.2,58.2,30.13,SSW,194,10.9,13.8,78,0.00,,OVC,0.00,0.0,WeatherDisplay:10.37,2013-01-14 02:32:00,
2013-01-13 21:33:00,65.0,58.0,30.13,South,190,10.5,12.7,78,0.00,,OVC,0.00,0.0,WeatherDisplay:10.37,2013-01-14 02:33:00,
2013-01-13 21:35:00,65.0,58.3,30.13,SSW,192,11.6,14.0,79,0.00,,OVC,0.00,0.0,WeatherDisplay:10.37,2013-01-14 02:35:00,
2013-01-13 21:36:00,65.0,58.3,30.13,South,184,12.8,13.8,79,0.00,,OVC,0.00,0.0,WeatherDisplay:10.37,2013-01-14 02:36:00,
2013-01-13 21:37:00,65.0,58.3,30.13,SSW,197,12.1,15.0,79,0.00,,OVC,0.00,0.0,WeatherDisplay:10.37,2013-01-14 02:37:00,
2013-01-13 21:40:00,65.0,58.3,30.13,SSW,196,11.7,16.1,79,0.00,,OVC,0.00,0.0,WeatherDisplay:10.37,2013-01-14 02:40:00,
2013-01-13 21:42:00,65.0,58.3,30.13,South,190,11.7,17.3,79,0.00,,OVC,0.00,0.0,WeatherDisplay:10.37,2013-01-14 02:42:00,
2013-01-13 21:45:00,65.0,58.3,30.13,SSW,193,12.0,18.0,79,0.00,,OVC,0.00,0.0,WeatherDisplay:10.37,2013-01-14 02:45:00,
2013-01-13 21:47:00,65.0,58.3,30.13,South,183,12.2,17.3,79,0.00,,OVC,0.00,0.0,WeatherDisplay:10.37,2013-01-14 02:47:00,
2013-01-13 21:48:00,65.0,58.3,30.13,SSW,194,12.5,14.0,79,0.00,,OVC,0.00,0.0,WeatherDisplay:10.37,2013-01-14 02:48:00,
2013-01-13 21:50:00,64.8,58.1,30.13,SSW,193,12.2,13.0,79,0.00,,OVC,0.00,0.0,WeatherDisplay:10.37,2013-01-14 02:50:00,
2013-01-13 21:53:00,64.8,58.1,30.13,SSW,199,13.8,17.3,79,0.00,,OVC,0.00,0.0,WeatherDisplay:10.37,2013-01-14 02:53:00,
2013-01-13 21:56:00,65.0,58.3,30.13,SSW,193,12.8,18.4,79,0.00,,OVC,0.00,0.0,WeatherDisplay:10.37,2013-01-14 02:56:00,
2013-01-13 21:57:00,65.0,58.3,30.13,South,188,11.4,13.8,79,0.00,,OVC,0.00,0.0,WeatherDisplay:10.37,2013-01-14 02:57:00,
2013-01-13 21:58:00,64.8,58.1,30.13,South,186,13.2,16.1,79,0.00,,OVC,0.00,0.0,WeatherDisplay:10.37,2013-01-14 02:58:00,
2013-01-13 22:00:00,64.8,58.1,30.13,South,187,14.0,21.0,79,0.00,,OVC,0.00,0.0,WeatherDisplay:10.37,2013-01-14 03:00:00,
2013-01-13 22:01:00,64.8,58.1,30.13,South,180,12.5,18.4,79,0.00,,OVC,0.00,0.0,WeatherDisplay:10.37,2013-01-14 03:01:00,
2013-01-13 22:02:00,64.8,58.1,30.13,South,182,11.3,16.1,79,0.00,,OVC,0.00,0.0,WeatherDisplay:10.37,2013-01-14 03:02:00,
2013-01-13 22:03:00,65.0,58.3,30.12,South,186,12.2,15.0,79,0.00,,OVC,0.00,0.0,WeatherDisplay:10.37,2013-01-14 03:03:00,
2013-01-13 22:06:00,64.8,58.1,30.12,SSW,195,12.8,15.0,79,0.00,,OVC,0.00,0.0,WeatherDisplay:10.37,2013-01-14 03:06:00,
2013-01-13 22:08:00,65.0,58.3,30.12,SSW,192,12.7,13.8,79,0.00,,OVC,0.00,0.0,WeatherDisplay:10.37,2013-01-14 03:08:00,
2013-01-13 22:09:00,65.0,58.3,30.12,SSW,192,13.5,17.3,79,0.00,,OVC,0.00,0.0,WeatherDisplay:10.37,2013-01-14 03:09:00,
2013-01-13 22:11:00,65.0,58.3,30.12,SSW,197,13.7,17.0,79,0.00,,OVC,0.00,0.0,WeatherDisplay:10.37,2013-01-14 03:11:00,
2013-01-13 22:13:00,65.0,58.3,30.12,South,185,13.5,17.3,79,0.00,,OVC,0.00,0.0,WeatherDisplay:10.37,2013-01-14 03:13:00,
2013-01-13 22:14:00,65.0,58.3,30.12,South,181,13.1,16.1,79,0.00,,OVC,0.00,0.0,WeatherDisplay:10.37,2013-01-14 03:14:00,
2013-01-13 22:16:00,65.0,58.3,30.12,SSW,201,11.4,15.0,79,0.00,,OVC,0.00,0.0,WeatherDisplay:10.37,2013-01-14 03:16:00,
2013-01-13 22:19:00,64.8,58.1,30.13,SSW,192,11.9,16.1,79,0.00,,OVC,0.00,0.0,WeatherDisplay:10.37,2013-01-14 03:19:00,
2013-01-13 22:20:00,64.8,58.1,30.13,SSW,194,12.4,17.3,79,0.00,,OVC,0.00,0.0,WeatherDisplay:10.37,2013-01-14 03:20:00,
2013-01-13 22:21:00,64.8,58.1,30.13,SSW,192,9.5,12.7,79,0.00,,OVC,0.00,0.0,WeatherDisplay:10.37,2013-01-14 03:21:00,
2013-01-13 22:23:00,64.8,58.1,30.13,SSW,200,15.0,19.6,79,0.00,,OVC,0.00,0.0,WeatherDisplay:10.37,2013-01-14 03:23:00,
2013-01-13 22:24:00,64.8,58.1,30.13,South,183,14.6,19.0,79,0.00,,OVC,0.00,0.0,WeatherDisplay:10.37,2013-01-14 03:24:00,
2013-01-13 22:26:00,64.8,58.1,30.13,South,188,11.8,15.0,79,0.00,,OVC,0.00,0.0,WeatherDisplay:10.37,2013-01-14 03:26:00,
2013-01-13 22:27:00,64.8,58.1,30.13,SSW,196,12.9,17.3,79,0.00,,OVC,0.00,0.0,WeatherDisplay:10.37,2013-01-14 03:27:00,
2013-01-13 22:29:00,64.8,58.1,30.13,South,176,12.0,16.0,79,0.00,,OVC,0.00,0.0,WeatherDisplay:10.37,2013-01-14 03:29:00,
2013-01-13 22:31:00,64.8,58.1,30.13,South,186,12.2,19.6,79,0.00,,OVC,0.00,0.0,WeatherDisplay:10.37,2013-01-14 03:31:00,
2013-01-13 22:32:00,64.8,58.1,30.13,South,191,12.2,17.0,79,0.00,,OVC,0.00,0.0,WeatherDisplay:10.37,2013-01-14 03:32:00,
2013-01-13 22:33:00,64.8,58.1,30.14,SSW,192,15.0,20.7,79,0.00,,OVC,0.00,0.0,WeatherDisplay:10.37,2013-01-14 03:33:00,
2013-01-13 22:34:00,64.8,58.1,30.14,SSW,202,14.1,18.4,79,0.00,,OVC,0.00,0.0,WeatherDisplay:10.37,2013-01-14 03:34:00,
2013-01-13 22:36:00,65.0,58.0,30.14,South,190,13.0,17.3,78,0.00,,OVC,0.00,0.0,WeatherDisplay:10.37,2013-01-14 03:36:00,
2013-01-13 22:37:00,65.0,58.0,30.14,South,189,12.6,17.3,78,0.00,,OVC,0.00,0.0,WeatherDisplay:10.37,2013-01-14 03:37:00,
2013-01-13 22:39:00,65.0,58.0,30.14,South,186,15.0,19.6,78,0.00,,OVC,0.00,0.0,WeatherDisplay:10.37,2013-01-14 03:39:00,
2013-01-13 22:40:00,65.0,58.0,30.14,South,180,14.8,21.9,78,0.00,,OVC,0.00,0.0,WeatherDisplay:10.37,2013-01-14 03:40:00,
2013-01-13 22:44:00,65.0,58.0,30.14,SSW,194,10.7,16.1,78,0.00,,OVC,0.00,0.0,WeatherDisplay:10.37,2013-01-14 03:44:00,
2013-01-13 22:45:00,65.0,58.0,30.14,SSW,204,14.0,20.0,78,0.00,,OVC,0.00,0.0,WeatherDisplay:10.37,2013-01-14 03:45:00,
2013-01-13 22:46:00,65.0,58.0,30.14,SSW,196,11.9,19.6,78,0.00,,OVC,0.00,0.0,WeatherDisplay:10.37,2013-01-14 03:46:00,
2013-01-13 22:47:00,65.0,58.0,30.14,SSW,196,14.2,21.0,78,0.00,,OVC,0.00,0.0,WeatherDisplay:10.37,2013-01-14 03:47:00,
2013-01-13 22:50:00,65.2,58.2,30.14,South,184,9.0,18.4,78,0.00,,OVC,0.00,0.0,WeatherDisplay:10.37,2013-01-14 03:50:00,
2013-01-13 22:52:00,65.0,58.0,30.14,SSW,192,11.1,12.7,78,0.00,,OVC,0.00,0.0,WeatherDisplay:10.37,2013-01-14 03:52:00,
2013-01-13 22:54:00,65.0,58.0,30.14,SSW,196,9.0,11.5,78,0.00,,OVC,0.00,0.0,WeatherDisplay:10.37,2013-01-14 03:54:00,
2013-01-13 22:55:00,64.8,57.8,30.14,SSW,213,11.2,14.0,78,0.00,,OVC,0.00,0.0,WeatherDisplay:10.37,2013-01-14 03:55:00,
2013-01-13 22:56:00,64.8,58.1,30.14,SSW,200,11.3,13.8,79,0.00,,OVC,0.00,0.0,WeatherDisplay:10.37,2013-01-14 03:56:00,
2013-01-13 22:57:00,64.8,58.1,30.14,South,189,11.0,15.0,79,0.00,,OVC,0.00,0.0,WeatherDisplay:10.37,2013-01-14 03:57:00,
2013-01-13 22:59:00,64.8,58.1,30.14,South,190,14.7,18.4,79,0.00,,OVC,0.00,0.0,WeatherDisplay:10.37,2013-01-14 03:59:00,
2013-01-13 23:00:00,64.8,58.1,30.14,South,189,14.2,18.4,79,0.00,,OVC,0.00,0.0,WeatherDisplay:10.37,2013-01-14 04:00:00,
2013-01-13 23:03:00,64.8,58.1,30.14,SW,217,12.7,13.8,79,0.00,,OVC,0.00,0.0,WeatherDisplay:10.37,2013-01-14 04:03:00,
2013-01-13 23:05:00,64.8,58.1,30.14,SSW,202,11.9,13.8,79,0.00,,OVC,0.00,0.0,WeatherDisplay:10.37,2013-01-14 04:05:00,
2013-01-13 23:07:00,65.0,58.3,30.14,SSW,211,12.1,18.4,79,0.00,,OVC,0.00,0.0,WeatherDisplay:10.37,2013-01-14 04:07:00,
2013-01-13 23:10:00,64.8,58.1,30.14,SSW,205,13.0,16.1,79,0.00,,OVC,0.00,0.0,WeatherDisplay:10.37,2013-01-14 04:10:00,
2013-01-13 23:11:00,64.8,58.1,30.14,SW,223,12.4,16.1,79,0.00,,OVC,0.00,0.0,WeatherDisplay:10.37,2013-01-14 04:11:00,
2013-01-13 23:13:00,65.0,58.3,30.14,SSW,192,12.8,16.1,79,0.00,,OVC,0.00,0.0,WeatherDisplay:10.37,2013-01-14 04:13:00,
2013-01-13 23:14:00,64.8,58.1,30.14,South,190,12.3,15.0,79,0.00,,OVC,0.00,0.0,WeatherDisplay:10.37,2013-01-14 04:14:00,
2013-01-13 23:16:00,64.8,58.1,30.14,South,186,11.8,16.1,79,0.00,,OVC,0.00,0.0,WeatherDisplay:10.37,2013-01-14 04:16:00,
2013-01-13 23:18:00,64.8,58.1,30.14,SSW,199,10.1,12.7,79,0.00,,OVC,0.00,0.0,WeatherDisplay:10.37,2013-01-14 04:18:00,
2013-01-13 23:19:00,64.8,58.1,30.14,South,190,10.5,14.0,79,0.00,,OVC,0.00,0.0,WeatherDisplay:10.37,2013-01-14 04:19:00,
2013-01-13 23:21:00,64.8,58.1,30.14,SSW,207,9.9,12.7,79,0.00,,OVC,0.00,0.0,WeatherDisplay:10.37,2013-01-14 04:21:00,
2013-01-13 23:23:00,64.7,58.0,30.14,SSW,198,11.4,15.0,79,0.00,,OVC,0.00,0.0,WeatherDisplay:10.37,2013-01-14 04:23:00,
2013-01-13 23:24:00,64.7,58.0,30.14,South,186,10.9,13.8,79,0.00,,OVC,0.00,0.0,WeatherDisplay:10.37,2013-01-14 04:24:00,
2013-01-13 23:26:00,64.7,58.0,30.14,South,187,13.7,13.7,79,0.00,,OVC,0.00,0.0,WeatherDisplay:10.37,2013-01-14 04:26:00,
2013-01-13 23:27:00,64.7,58.0,30.14,SSW,194,11.3,17.3,79,0.00,,OVC,0.00,0.0,WeatherDisplay:10.37,2013-01-14 04:27:00,
2013-01-13 23:29:00,64.7,58.4,30.14,SSW,194,11.8,16.1,80,0.00,,OVC,0.00,0.0,WeatherDisplay:10.37,2013-01-14 04:29:00,
2013-01-13 23:31:00,64.7,58.4,30.14,South,191,9.7,17.3,80,0.00,,OVC,0.00,0.0,WeatherDisplay:10.37,2013-01-14 04:31:00,
2013-01-13 23:32:00,64.5,58.2,30.14,South,191,8.9,12.7,80,0.00,,OVC,0.00,0.0,WeatherDisplay:10.37,2013-01-14 04:32:00,
2013-01-13 23:34:00,64.5,58.2,30.14,SSW,204,9.0,13.8,80,0.00,,OVC,0.00,0.0,WeatherDisplay:10.37,2013-01-14 04:34:00,
2013-01-13 23:36:00,64.3,58.0,30.14,SSW,195,6.7,11.5,80,0.00,,OVC,0.00,0.0,WeatherDisplay:10.37,2013-01-14 04:36:00,
2013-01-13 23:39:00,64.2,57.9,30.14,South,183,8.0,12.0,80,0.00,,OVC,0.00,0.0,WeatherDisplay:10.37,2013-01-14 04:39:00,
2013-01-13 23:40:00,64.2,57.9,30.14,SSW,200,11.0,12.7,80,0.00,,OVC,0.00,0.0,WeatherDisplay:10.37,2013-01-14 04:40:00,
2013-01-13 23:41:00,64.2,58.2,30.14,South,186,11.6,12.7,81,0.00,,OVC,0.00,0.0,WeatherDisplay:10.37,2013-01-14 04:41:00,
2013-01-13 23:42:00,64.2,57.9,30.14,SSW,198,8.7,13.8,80,0.00,,OVC,0.00,0.0,WeatherDisplay:10.37,2013-01-14 04:42:00,
2013-01-13 23:47:00,64.3,58.0,30.14,SSW,194,14.8,18.4,80,0.00,,OVC,0.00,0.0,WeatherDisplay:10.37,2013-01-14 04:47:00,
2013-01-13 23:49:00,64.3,58.0,30.15,SSW,196,12.4,17.3,80,0.00,,OVC,0.00,0.0,WeatherDisplay:10.37,2013-01-14 04:49:00,
2013-01-13 23:52:00,64.2,58.2,30.15,SSW,202,15.3,19.6,81,0.00,,OVC,0.00,0.0,WeatherDisplay:10.37,2013-01-14 04:52:00,
2013-01-13 23:53:00,64.2,58.2,30.15,SSW,202,12.2,19.6,81,0.00,,OVC,0.00,0.0,WeatherDisplay:10.37,2013-01-14 04:53:00,
2013-01-13 23:54:00,64.2,57.9,30.15,SSW,207,10.0,12.7,80,0.00,,OVC,0.00,0.0,WeatherDisplay:10.37,2013-01-14 04:54:00,
2013-01-13 23:58:00,64.0,58.1,30.15,SSW,197,10.1,11.5,81,0.00,,OVC,0.00,0.0,WeatherDisplay:10.37,2013-01-14 04:58:00,
2013-01-13 23:59:00,64.0,58.1,30.15,SSW,196,10.9,12.7,81,0.00,,OVC,0.00,0.0,WeatherDisplay:10.37,2013-01-14 04:59:00,